<?xml version="1.0" encoding="UTF-8" standalone="no" ?>
<gpx xmlns="http://www.topografix.com/GPX/1/1" xmlns:xsi="http://www.w3.org/2001/XMLSchema-instance" xsi:schemaLocation="http://www.topografix.com/GPX/1/1 http://www.topografix.com/GPX/1/1/gpx.xsd" version="1.1" creator="VisuGPX - https://www.visugpx.com">
  <metadata>
    <name>19.04.2015. De bons dénivelés</name>
    <desc><![CDATA[Partie sans carte, j\\\'aurais pu suivre son avis (à ma Ténébra) pour éviter la boucle en reprenant un peu la piste cyclable. Départ vers la Ducambanderie et de très beaux petits chemins bien... montants !]]></desc>
  </metadata>
  <trk>
    <name><![CDATA[19.04.2015. avec dénivelés (vers Ducambanderie)]]></name>
    <trkseg>
      <trkpt lat="48.70738" lon="1.75388">
        <ele>173.4</ele>
        <time>2015-04-19T09:30:21.000Z</time>
      </trkpt>
      <trkpt lat="48.70742" lon="1.7539">
        <ele>173.3</ele>
        <time>2015-04-19T09:30:22.000Z</time>
      </trkpt>
      <trkpt lat="48.70752" lon="1.75385">
        <ele>173.2</ele>
        <time>2015-04-19T09:30:31.000Z</time>
      </trkpt>
      <trkpt lat="48.70762" lon="1.7537">
        <ele>173.8</ele>
        <time>2015-04-19T09:30:43.000Z</time>
      </trkpt>
      <trkpt lat="48.70767" lon="1.75347">
        <ele>174</ele>
        <time>2015-04-19T09:30:55.000Z</time>
      </trkpt>
      <trkpt lat="48.70772" lon="1.75333">
        <ele>174</ele>
        <time>2015-04-19T09:31:03.000Z</time>
      </trkpt>
      <trkpt lat="48.70778" lon="1.7532">
        <ele>174</ele>
        <time>2015-04-19T09:31:11.000Z</time>
      </trkpt>
      <trkpt lat="48.70784" lon="1.75306">
        <ele>174</ele>
        <time>2015-04-19T09:31:20.000Z</time>
      </trkpt>
      <trkpt lat="48.70788" lon="1.75287">
        <ele>174.2</ele>
        <time>2015-04-19T09:31:30.000Z</time>
      </trkpt>
      <trkpt lat="48.70793" lon="1.75269">
        <ele>174.5</ele>
        <time>2015-04-19T09:31:40.000Z</time>
      </trkpt>
      <trkpt lat="48.70798" lon="1.75254">
        <ele>174.7</ele>
        <time>2015-04-19T09:31:48.000Z</time>
      </trkpt>
      <trkpt lat="48.70805" lon="1.75239">
        <ele>175</ele>
        <time>2015-04-19T09:31:58.000Z</time>
      </trkpt>
      <trkpt lat="48.70813" lon="1.75224">
        <ele>175</ele>
        <time>2015-04-19T09:32:08.000Z</time>
      </trkpt>
      <trkpt lat="48.7082" lon="1.75206">
        <ele>175</ele>
        <time>2015-04-19T09:32:19.000Z</time>
      </trkpt>
      <trkpt lat="48.70823" lon="1.752">
        <ele>175</ele>
        <time>2015-04-19T09:32:23.000Z</time>
      </trkpt>
      <trkpt lat="48.70826" lon="1.75192">
        <ele>175</ele>
        <time>2015-04-19T09:32:28.000Z</time>
      </trkpt>
      <trkpt lat="48.70831" lon="1.75177">
        <ele>175</ele>
        <time>2015-04-19T09:32:36.000Z</time>
      </trkpt>
      <trkpt lat="48.70835" lon="1.75167">
        <ele>175</ele>
        <time>2015-04-19T09:32:42.000Z</time>
      </trkpt>
      <trkpt lat="48.7084" lon="1.75155">
        <ele>175</ele>
        <time>2015-04-19T09:32:49.000Z</time>
      </trkpt>
      <trkpt lat="48.70845" lon="1.75144">
        <ele>175</ele>
        <time>2015-04-19T09:32:56.000Z</time>
      </trkpt>
      <trkpt lat="48.7085" lon="1.75133">
        <ele>175</ele>
        <time>2015-04-19T09:33:03.000Z</time>
      </trkpt>
      <trkpt lat="48.70856" lon="1.75122">
        <ele>175</ele>
        <time>2015-04-19T09:33:11.000Z</time>
      </trkpt>
      <trkpt lat="48.70856" lon="1.75121">
        <ele>175</ele>
        <time>2015-04-19T09:33:13.000Z</time>
      </trkpt>
      <trkpt lat="48.70863" lon="1.75105">
        <ele>175</ele>
        <time>2015-04-19T09:33:42.000Z</time>
      </trkpt>
      <trkpt lat="48.7087" lon="1.75091">
        <ele>175</ele>
        <time>2015-04-19T09:33:50.000Z</time>
      </trkpt>
      <trkpt lat="48.70873" lon="1.7508">
        <ele>175</ele>
        <time>2015-04-19T09:33:56.000Z</time>
      </trkpt>
      <trkpt lat="48.70874" lon="1.75078">
        <ele>175</ele>
        <time>2015-04-19T09:33:57.000Z</time>
      </trkpt>
      <trkpt lat="48.7088" lon="1.75065">
        <ele>175</ele>
        <time>2015-04-19T09:34:05.000Z</time>
      </trkpt>
      <trkpt lat="48.70889" lon="1.75048">
        <ele>175</ele>
        <time>2015-04-19T09:34:16.000Z</time>
      </trkpt>
      <trkpt lat="48.70892" lon="1.75041">
        <ele>175.1</ele>
        <time>2015-04-19T09:34:20.000Z</time>
      </trkpt>
      <trkpt lat="48.70899" lon="1.75026">
        <ele>175.4</ele>
        <time>2015-04-19T09:34:29.000Z</time>
      </trkpt>
      <trkpt lat="48.70909" lon="1.75006">
        <ele>175.2</ele>
        <time>2015-04-19T09:34:40.000Z</time>
      </trkpt>
      <trkpt lat="48.70918" lon="1.74988">
        <ele>175</ele>
        <time>2015-04-19T09:34:51.000Z</time>
      </trkpt>
      <trkpt lat="48.70925" lon="1.74973">
        <ele>175.3</ele>
        <time>2015-04-19T09:35:01.000Z</time>
      </trkpt>
      <trkpt lat="48.70932" lon="1.74964">
        <ele>175.7</ele>
        <time>2015-04-19T09:35:08.000Z</time>
      </trkpt>
      <trkpt lat="48.70937" lon="1.74951">
        <ele>175.9</ele>
        <time>2015-04-19T09:35:15.000Z</time>
      </trkpt>
      <trkpt lat="48.70942" lon="1.74942">
        <ele>176</ele>
        <time>2015-04-19T09:35:22.000Z</time>
      </trkpt>
      <trkpt lat="48.70943" lon="1.74939">
        <ele>176</ele>
        <time>2015-04-19T09:35:24.000Z</time>
      </trkpt>
      <trkpt lat="48.70949" lon="1.74926">
        <ele>176</ele>
        <time>2015-04-19T09:35:32.000Z</time>
      </trkpt>
      <trkpt lat="48.70957" lon="1.74916">
        <ele>176</ele>
        <time>2015-04-19T09:35:40.000Z</time>
      </trkpt>
      <trkpt lat="48.70963" lon="1.74907">
        <ele>176</ele>
        <time>2015-04-19T09:35:47.000Z</time>
      </trkpt>
      <trkpt lat="48.70966" lon="1.74904">
        <ele>176</ele>
        <time>2015-04-19T09:35:50.000Z</time>
      </trkpt>
      <trkpt lat="48.70974" lon="1.74895">
        <ele>176</ele>
        <time>2015-04-19T09:35:57.000Z</time>
      </trkpt>
      <trkpt lat="48.70982" lon="1.74886">
        <ele>176</ele>
        <time>2015-04-19T09:36:04.000Z</time>
      </trkpt>
      <trkpt lat="48.70989" lon="1.7488">
        <ele>176</ele>
        <time>2015-04-19T09:36:10.000Z</time>
      </trkpt>
      <trkpt lat="48.70992" lon="1.74874">
        <ele>176</ele>
        <time>2015-04-19T09:36:14.000Z</time>
      </trkpt>
      <trkpt lat="48.70997" lon="1.74866">
        <ele>176</ele>
        <time>2015-04-19T09:36:19.000Z</time>
      </trkpt>
      <trkpt lat="48.71001" lon="1.74856">
        <ele>176</ele>
        <time>2015-04-19T09:36:25.000Z</time>
      </trkpt>
      <trkpt lat="48.71008" lon="1.74838">
        <ele>176</ele>
        <time>2015-04-19T09:36:34.000Z</time>
      </trkpt>
      <trkpt lat="48.71006" lon="1.7483">
        <ele>176</ele>
        <time>2015-04-19T09:36:39.000Z</time>
      </trkpt>
      <trkpt lat="48.70998" lon="1.74815">
        <ele>176</ele>
        <time>2015-04-19T09:36:48.000Z</time>
      </trkpt>
      <trkpt lat="48.70989" lon="1.74803">
        <ele>176</ele>
        <time>2015-04-19T09:36:55.000Z</time>
      </trkpt>
      <trkpt lat="48.70979" lon="1.74791">
        <ele>176</ele>
        <time>2015-04-19T09:37:04.000Z</time>
      </trkpt>
      <trkpt lat="48.70971" lon="1.74781">
        <ele>176</ele>
        <time>2015-04-19T09:37:12.000Z</time>
      </trkpt>
      <trkpt lat="48.70963" lon="1.74771">
        <ele>176</ele>
        <time>2015-04-19T09:37:20.000Z</time>
      </trkpt>
      <trkpt lat="48.70954" lon="1.74759">
        <ele>176</ele>
        <time>2015-04-19T09:37:28.000Z</time>
      </trkpt>
      <trkpt lat="48.70953" lon="1.74758">
        <ele>176</ele>
        <time>2015-04-19T09:37:29.000Z</time>
      </trkpt>
      <trkpt lat="48.70947" lon="1.74753">
        <ele>176</ele>
        <time>2015-04-19T09:37:34.000Z</time>
      </trkpt>
      <trkpt lat="48.70938" lon="1.74743">
        <ele>176</ele>
        <time>2015-04-19T09:37:42.000Z</time>
      </trkpt>
      <trkpt lat="48.70934" lon="1.74736">
        <ele>176</ele>
        <time>2015-04-19T09:37:47.000Z</time>
      </trkpt>
      <trkpt lat="48.70925" lon="1.74721">
        <ele>176</ele>
        <time>2015-04-19T09:37:57.000Z</time>
      </trkpt>
      <trkpt lat="48.70915" lon="1.74708">
        <ele>175.5</ele>
        <time>2015-04-19T09:38:07.000Z</time>
      </trkpt>
      <trkpt lat="48.70907" lon="1.74695">
        <ele>175.4</ele>
        <time>2015-04-19T09:38:16.000Z</time>
      </trkpt>
      <trkpt lat="48.70896" lon="1.74682">
        <ele>175.5</ele>
        <time>2015-04-19T09:38:26.000Z</time>
      </trkpt>
      <trkpt lat="48.70887" lon="1.74669">
        <ele>175.1</ele>
        <time>2015-04-19T09:38:36.000Z</time>
      </trkpt>
      <trkpt lat="48.70878" lon="1.74657">
        <ele>175.5</ele>
        <time>2015-04-19T09:38:45.000Z</time>
      </trkpt>
      <trkpt lat="48.70866" lon="1.74642">
        <ele>175.3</ele>
        <time>2015-04-19T09:38:56.000Z</time>
      </trkpt>
      <trkpt lat="48.70854" lon="1.74626">
        <ele>175.6</ele>
        <time>2015-04-19T09:39:08.000Z</time>
      </trkpt>
      <trkpt lat="48.70844" lon="1.74613">
        <ele>176</ele>
        <time>2015-04-19T09:39:17.000Z</time>
      </trkpt>
      <trkpt lat="48.70834" lon="1.74599">
        <ele>176</ele>
        <time>2015-04-19T09:39:27.000Z</time>
      </trkpt>
      <trkpt lat="48.70826" lon="1.7459">
        <ele>176</ele>
        <time>2015-04-19T09:39:35.000Z</time>
      </trkpt>
      <trkpt lat="48.70815" lon="1.74576">
        <ele>176</ele>
        <time>2015-04-19T09:39:46.000Z</time>
      </trkpt>
      <trkpt lat="48.70805" lon="1.74563">
        <ele>176</ele>
        <time>2015-04-19T09:39:56.000Z</time>
      </trkpt>
      <trkpt lat="48.70795" lon="1.74549">
        <ele>176.3</ele>
        <time>2015-04-19T09:40:06.000Z</time>
      </trkpt>
      <trkpt lat="48.70784" lon="1.74535">
        <ele>176.2</ele>
        <time>2015-04-19T09:40:16.000Z</time>
      </trkpt>
      <trkpt lat="48.70771" lon="1.74521">
        <ele>176</ele>
        <time>2015-04-19T09:40:27.000Z</time>
      </trkpt>
      <trkpt lat="48.70763" lon="1.74507">
        <ele>176</ele>
        <time>2015-04-19T09:40:37.000Z</time>
      </trkpt>
      <trkpt lat="48.70753" lon="1.74494">
        <ele>176</ele>
        <time>2015-04-19T09:40:47.000Z</time>
      </trkpt>
      <trkpt lat="48.70743" lon="1.74484">
        <ele>176</ele>
        <time>2015-04-19T09:40:56.000Z</time>
      </trkpt>
      <trkpt lat="48.70736" lon="1.74476">
        <ele>176</ele>
        <time>2015-04-19T09:41:04.000Z</time>
      </trkpt>
      <trkpt lat="48.70731" lon="1.7447">
        <ele>176</ele>
        <time>2015-04-19T09:41:10.000Z</time>
      </trkpt>
      <trkpt lat="48.70731" lon="1.74469">
        <ele>176</ele>
        <time>2015-04-19T09:41:12.000Z</time>
      </trkpt>
      <trkpt lat="48.70735" lon="1.74466">
        <ele>176</ele>
        <time>2015-04-19T09:46:40.000Z</time>
      </trkpt>
      <trkpt lat="48.70736" lon="1.74463">
        <ele>176</ele>
        <time>2015-04-19T09:46:43.000Z</time>
      </trkpt>
      <trkpt lat="48.70739" lon="1.74457">
        <ele>176</ele>
        <time>2015-04-19T09:46:54.000Z</time>
      </trkpt>
      <trkpt lat="48.70744" lon="1.74452">
        <ele>176</ele>
        <time>2015-04-19T09:46:57.000Z</time>
      </trkpt>
      <trkpt lat="48.7075" lon="1.74446">
        <ele>176</ele>
        <time>2015-04-19T09:47:03.000Z</time>
      </trkpt>
      <trkpt lat="48.70758" lon="1.74442">
        <ele>176</ele>
        <time>2015-04-19T09:47:09.000Z</time>
      </trkpt>
      <trkpt lat="48.70765" lon="1.74434">
        <ele>176</ele>
        <time>2015-04-19T09:47:16.000Z</time>
      </trkpt>
      <trkpt lat="48.70773" lon="1.74427">
        <ele>176</ele>
        <time>2015-04-19T09:47:23.000Z</time>
      </trkpt>
      <trkpt lat="48.70776" lon="1.74425">
        <ele>176</ele>
        <time>2015-04-19T09:47:26.000Z</time>
      </trkpt>
      <trkpt lat="48.70781" lon="1.74422">
        <ele>176</ele>
        <time>2015-04-19T09:47:32.000Z</time>
      </trkpt>
      <trkpt lat="48.70791" lon="1.74417">
        <ele>176</ele>
        <time>2015-04-19T09:47:39.000Z</time>
      </trkpt>
      <trkpt lat="48.70799" lon="1.74412">
        <ele>176</ele>
        <time>2015-04-19T09:47:45.000Z</time>
      </trkpt>
      <trkpt lat="48.70808" lon="1.74405">
        <ele>176</ele>
        <time>2015-04-19T09:47:52.000Z</time>
      </trkpt>
      <trkpt lat="48.70816" lon="1.74399">
        <ele>176</ele>
        <time>2015-04-19T09:47:58.000Z</time>
      </trkpt>
      <trkpt lat="48.70817" lon="1.74397">
        <ele>176</ele>
        <time>2015-04-19T09:47:59.000Z</time>
      </trkpt>
      <trkpt lat="48.70823" lon="1.74391">
        <ele>176</ele>
        <time>2015-04-19T09:48:04.000Z</time>
      </trkpt>
      <trkpt lat="48.70826" lon="1.74388">
        <ele>176</ele>
        <time>2015-04-19T09:48:07.000Z</time>
      </trkpt>
      <trkpt lat="48.70832" lon="1.74382">
        <ele>176</ele>
        <time>2015-04-19T09:48:13.000Z</time>
      </trkpt>
      <trkpt lat="48.70837" lon="1.74373">
        <ele>176</ele>
        <time>2015-04-19T09:48:19.000Z</time>
      </trkpt>
      <trkpt lat="48.70841" lon="1.74366">
        <ele>176</ele>
        <time>2015-04-19T09:48:24.000Z</time>
      </trkpt>
      <trkpt lat="48.70847" lon="1.74359">
        <ele>176</ele>
        <time>2015-04-19T09:48:30.000Z</time>
      </trkpt>
      <trkpt lat="48.70853" lon="1.74348">
        <ele>176</ele>
        <time>2015-04-19T09:48:37.000Z</time>
      </trkpt>
      <trkpt lat="48.70856" lon="1.74338">
        <ele>176</ele>
        <time>2015-04-19T09:48:42.000Z</time>
      </trkpt>
      <trkpt lat="48.7086" lon="1.74335">
        <ele>176</ele>
        <time>2015-04-19T09:48:46.000Z</time>
      </trkpt>
      <trkpt lat="48.70862" lon="1.74337">
        <ele>176</ele>
        <time>2015-04-19T09:48:53.000Z</time>
      </trkpt>
      <trkpt lat="48.70873" lon="1.74311">
        <ele>176</ele>
        <time>2015-04-19T09:49:43.000Z</time>
      </trkpt>
      <trkpt lat="48.7088" lon="1.74302">
        <ele>176</ele>
        <time>2015-04-19T09:49:48.000Z</time>
      </trkpt>
      <trkpt lat="48.70882" lon="1.74299">
        <ele>176.1</ele>
        <time>2015-04-19T09:49:52.000Z</time>
      </trkpt>
      <trkpt lat="48.70887" lon="1.74293">
        <ele>176</ele>
        <time>2015-04-19T09:49:57.000Z</time>
      </trkpt>
      <trkpt lat="48.70887" lon="1.74292">
        <ele>176</ele>
        <time>2015-04-19T09:49:58.000Z</time>
      </trkpt>
      <trkpt lat="48.70893" lon="1.74282">
        <ele>176</ele>
        <time>2015-04-19T09:50:04.000Z</time>
      </trkpt>
      <trkpt lat="48.70898" lon="1.74268">
        <ele>176.3</ele>
        <time>2015-04-19T09:50:11.000Z</time>
      </trkpt>
      <trkpt lat="48.70901" lon="1.74258">
        <ele>176.4</ele>
        <time>2015-04-19T09:50:17.000Z</time>
      </trkpt>
      <trkpt lat="48.70902" lon="1.74256">
        <ele>176.4</ele>
        <time>2015-04-19T09:50:18.000Z</time>
      </trkpt>
      <trkpt lat="48.70903" lon="1.7425">
        <ele>176.5</ele>
        <time>2015-04-19T09:50:22.000Z</time>
      </trkpt>
      <trkpt lat="48.70904" lon="1.7424">
        <ele>176.6</ele>
        <time>2015-04-19T09:50:28.000Z</time>
      </trkpt>
      <trkpt lat="48.70904" lon="1.74238">
        <ele>176.7</ele>
        <time>2015-04-19T09:50:31.000Z</time>
      </trkpt>
      <trkpt lat="48.70902" lon="1.74213">
        <ele>177</ele>
        <time>2015-04-19T09:51:27.000Z</time>
      </trkpt>
      <trkpt lat="48.70907" lon="1.74205">
        <ele>177</ele>
        <time>2015-04-19T09:51:33.000Z</time>
      </trkpt>
      <trkpt lat="48.7091" lon="1.742">
        <ele>177</ele>
        <time>2015-04-19T09:51:37.000Z</time>
      </trkpt>
      <trkpt lat="48.70912" lon="1.74192">
        <ele>177</ele>
        <time>2015-04-19T09:51:41.000Z</time>
      </trkpt>
      <trkpt lat="48.70914" lon="1.74181">
        <ele>177</ele>
        <time>2015-04-19T09:51:47.000Z</time>
      </trkpt>
      <trkpt lat="48.70916" lon="1.74176">
        <ele>177</ele>
        <time>2015-04-19T09:51:51.000Z</time>
      </trkpt>
      <trkpt lat="48.70918" lon="1.74163">
        <ele>177</ele>
        <time>2015-04-19T09:51:57.000Z</time>
      </trkpt>
      <trkpt lat="48.70923" lon="1.74151">
        <ele>177</ele>
        <time>2015-04-19T09:52:04.000Z</time>
      </trkpt>
      <trkpt lat="48.70926" lon="1.74138">
        <ele>177</ele>
        <time>2015-04-19T09:52:11.000Z</time>
      </trkpt>
      <trkpt lat="48.70929" lon="1.74129">
        <ele>177</ele>
        <time>2015-04-19T09:52:16.000Z</time>
      </trkpt>
      <trkpt lat="48.70929" lon="1.74122">
        <ele>177</ele>
        <time>2015-04-19T09:52:19.000Z</time>
      </trkpt>
      <trkpt lat="48.70931" lon="1.74118">
        <ele>177</ele>
        <time>2015-04-19T09:52:25.000Z</time>
      </trkpt>
      <trkpt lat="48.70943" lon="1.74094">
        <ele>177</ele>
        <time>2015-04-19T09:52:50.000Z</time>
      </trkpt>
      <trkpt lat="48.70944" lon="1.74086">
        <ele>177</ele>
        <time>2015-04-19T09:52:55.000Z</time>
      </trkpt>
      <trkpt lat="48.70943" lon="1.74086">
        <ele>177</ele>
        <time>2015-04-19T09:52:57.000Z</time>
      </trkpt>
      <trkpt lat="48.70946" lon="1.74077">
        <ele>177</ele>
        <time>2015-04-19T09:53:08.000Z</time>
      </trkpt>
      <trkpt lat="48.70946" lon="1.74075">
        <ele>177</ele>
        <time>2015-04-19T09:53:09.000Z</time>
      </trkpt>
      <trkpt lat="48.70948" lon="1.74065">
        <ele>177.1</ele>
        <time>2015-04-19T09:53:14.000Z</time>
      </trkpt>
      <trkpt lat="48.70951" lon="1.74058">
        <ele>177.2</ele>
        <time>2015-04-19T09:53:18.000Z</time>
      </trkpt>
      <trkpt lat="48.70953" lon="1.74045">
        <ele>177.6</ele>
        <time>2015-04-19T09:53:25.000Z</time>
      </trkpt>
      <trkpt lat="48.70956" lon="1.74029">
        <ele>178</ele>
        <time>2015-04-19T09:53:33.000Z</time>
      </trkpt>
      <trkpt lat="48.70958" lon="1.7402">
        <ele>178</ele>
        <time>2015-04-19T09:53:38.000Z</time>
      </trkpt>
      <trkpt lat="48.70959" lon="1.74018">
        <ele>178</ele>
        <time>2015-04-19T09:53:39.000Z</time>
      </trkpt>
      <trkpt lat="48.70959" lon="1.74011">
        <ele>178</ele>
        <time>2015-04-19T09:53:42.000Z</time>
      </trkpt>
      <trkpt lat="48.70962" lon="1.74003">
        <ele>178</ele>
        <time>2015-04-19T09:53:47.000Z</time>
      </trkpt>
      <trkpt lat="48.70965" lon="1.73989">
        <ele>178</ele>
        <time>2015-04-19T09:53:54.000Z</time>
      </trkpt>
      <trkpt lat="48.70967" lon="1.73984">
        <ele>178</ele>
        <time>2015-04-19T09:53:57.000Z</time>
      </trkpt>
      <trkpt lat="48.70969" lon="1.73974">
        <ele>178</ele>
        <time>2015-04-19T09:54:03.000Z</time>
      </trkpt>
      <trkpt lat="48.70969" lon="1.73972">
        <ele>178</ele>
        <time>2015-04-19T09:54:04.000Z</time>
      </trkpt>
      <trkpt lat="48.70971" lon="1.73966">
        <ele>177.8</ele>
        <time>2015-04-19T09:54:10.000Z</time>
      </trkpt>
      <trkpt lat="48.70972" lon="1.7396">
        <ele>177.6</ele>
        <time>2015-04-19T09:54:15.000Z</time>
      </trkpt>
      <trkpt lat="48.70972" lon="1.73958">
        <ele>177.5</ele>
        <time>2015-04-19T09:54:16.000Z</time>
      </trkpt>
      <trkpt lat="48.70973" lon="1.73952">
        <ele>177.3</ele>
        <time>2015-04-19T09:54:19.000Z</time>
      </trkpt>
      <trkpt lat="48.70976" lon="1.73939">
        <ele>177.3</ele>
        <time>2015-04-19T09:54:25.000Z</time>
      </trkpt>
      <trkpt lat="48.70979" lon="1.73929">
        <ele>177.7</ele>
        <time>2015-04-19T09:54:30.000Z</time>
      </trkpt>
      <trkpt lat="48.70983" lon="1.73914">
        <ele>178</ele>
        <time>2015-04-19T09:54:38.000Z</time>
      </trkpt>
      <trkpt lat="48.70986" lon="1.73899">
        <ele>178</ele>
        <time>2015-04-19T09:54:45.000Z</time>
      </trkpt>
      <trkpt lat="48.70988" lon="1.73887">
        <ele>178</ele>
        <time>2015-04-19T09:54:52.000Z</time>
      </trkpt>
      <trkpt lat="48.70989" lon="1.73873">
        <ele>178</ele>
        <time>2015-04-19T09:54:59.000Z</time>
      </trkpt>
      <trkpt lat="48.70993" lon="1.73857">
        <ele>178</ele>
        <time>2015-04-19T09:55:07.000Z</time>
      </trkpt>
      <trkpt lat="48.70995" lon="1.73841">
        <ele>178</ele>
        <time>2015-04-19T09:55:14.000Z</time>
      </trkpt>
      <trkpt lat="48.70998" lon="1.73826">
        <ele>178</ele>
        <time>2015-04-19T09:55:22.000Z</time>
      </trkpt>
      <trkpt lat="48.71002" lon="1.73814">
        <ele>178</ele>
        <time>2015-04-19T09:55:29.000Z</time>
      </trkpt>
      <trkpt lat="48.71003" lon="1.73812">
        <ele>178</ele>
        <time>2015-04-19T09:55:30.000Z</time>
      </trkpt>
      <trkpt lat="48.71011" lon="1.73803">
        <ele>178</ele>
        <time>2015-04-19T09:55:38.000Z</time>
      </trkpt>
      <trkpt lat="48.71015" lon="1.73794">
        <ele>178</ele>
        <time>2015-04-19T09:55:44.000Z</time>
      </trkpt>
      <trkpt lat="48.7102" lon="1.73784">
        <ele>178</ele>
        <time>2015-04-19T09:55:52.000Z</time>
      </trkpt>
      <trkpt lat="48.71023" lon="1.73783">
        <ele>178</ele>
        <time>2015-04-19T09:55:55.000Z</time>
      </trkpt>
      <trkpt lat="48.71033" lon="1.73777">
        <ele>177.8</ele>
        <time>2015-04-19T09:56:04.000Z</time>
      </trkpt>
      <trkpt lat="48.71037" lon="1.73772">
        <ele>177.7</ele>
        <time>2015-04-19T09:56:09.000Z</time>
      </trkpt>
      <trkpt lat="48.71038" lon="1.73771">
        <ele>177.6</ele>
        <time>2015-04-19T09:56:10.000Z</time>
      </trkpt>
      <trkpt lat="48.71043" lon="1.73764">
        <ele>177.4</ele>
        <time>2015-04-19T09:56:17.000Z</time>
      </trkpt>
      <trkpt lat="48.71046" lon="1.73761">
        <ele>177.3</ele>
        <time>2015-04-19T09:56:20.000Z</time>
      </trkpt>
      <trkpt lat="48.7105" lon="1.73755">
        <ele>177.2</ele>
        <time>2015-04-19T09:56:25.000Z</time>
      </trkpt>
      <trkpt lat="48.71055" lon="1.7375">
        <ele>177</ele>
        <time>2015-04-19T09:56:31.000Z</time>
      </trkpt>
      <trkpt lat="48.71062" lon="1.73742">
        <ele>177.2</ele>
        <time>2015-04-19T09:56:38.000Z</time>
      </trkpt>
      <trkpt lat="48.71066" lon="1.73739">
        <ele>177.2</ele>
        <time>2015-04-19T09:56:42.000Z</time>
      </trkpt>
      <trkpt lat="48.71068" lon="1.7374">
        <ele>177.2</ele>
        <time>2015-04-19T09:56:47.000Z</time>
      </trkpt>
      <trkpt lat="48.71075" lon="1.73736">
        <ele>177.2</ele>
        <time>2015-04-19T09:56:59.000Z</time>
      </trkpt>
      <trkpt lat="48.71077" lon="1.73734">
        <ele>177.1</ele>
        <time>2015-04-19T09:57:00.000Z</time>
      </trkpt>
      <trkpt lat="48.71084" lon="1.73728">
        <ele>177</ele>
        <time>2015-04-19T09:57:06.000Z</time>
      </trkpt>
      <trkpt lat="48.71087" lon="1.73725">
        <ele>177</ele>
        <time>2015-04-19T09:57:09.000Z</time>
      </trkpt>
      <trkpt lat="48.71094" lon="1.73718">
        <ele>177.2</ele>
        <time>2015-04-19T09:57:14.000Z</time>
      </trkpt>
      <trkpt lat="48.71097" lon="1.73711">
        <ele>177.4</ele>
        <time>2015-04-19T09:57:18.000Z</time>
      </trkpt>
      <trkpt lat="48.71102" lon="1.73707">
        <ele>177.5</ele>
        <time>2015-04-19T09:57:22.000Z</time>
      </trkpt>
      <trkpt lat="48.71111" lon="1.73699">
        <ele>177.8</ele>
        <time>2015-04-19T09:57:31.000Z</time>
      </trkpt>
      <trkpt lat="48.71112" lon="1.73697">
        <ele>177.9</ele>
        <time>2015-04-19T09:57:33.000Z</time>
      </trkpt>
      <trkpt lat="48.71122" lon="1.73686">
        <ele>178</ele>
        <time>2015-04-19T09:57:41.000Z</time>
      </trkpt>
      <trkpt lat="48.71124" lon="1.73683">
        <ele>178</ele>
        <time>2015-04-19T09:57:43.000Z</time>
      </trkpt>
      <trkpt lat="48.71132" lon="1.73676">
        <ele>178</ele>
        <time>2015-04-19T09:57:49.000Z</time>
      </trkpt>
      <trkpt lat="48.71138" lon="1.73669">
        <ele>178</ele>
        <time>2015-04-19T09:57:54.000Z</time>
      </trkpt>
      <trkpt lat="48.71142" lon="1.73663">
        <ele>178</ele>
        <time>2015-04-19T09:57:58.000Z</time>
      </trkpt>
      <trkpt lat="48.71154" lon="1.73652">
        <ele>178</ele>
        <time>2015-04-19T09:58:07.000Z</time>
      </trkpt>
      <trkpt lat="48.71157" lon="1.73648">
        <ele>178</ele>
        <time>2015-04-19T09:58:10.000Z</time>
      </trkpt>
      <trkpt lat="48.71161" lon="1.73645">
        <ele>178</ele>
        <time>2015-04-19T09:58:14.000Z</time>
      </trkpt>
      <trkpt lat="48.71169" lon="1.73638">
        <ele>178</ele>
        <time>2015-04-19T09:58:21.000Z</time>
      </trkpt>
      <trkpt lat="48.71178" lon="1.73629">
        <ele>178</ele>
        <time>2015-04-19T09:58:28.000Z</time>
      </trkpt>
      <trkpt lat="48.71185" lon="1.73624">
        <ele>178</ele>
        <time>2015-04-19T09:58:33.000Z</time>
      </trkpt>
      <trkpt lat="48.71193" lon="1.73611">
        <ele>178</ele>
        <time>2015-04-19T09:58:41.000Z</time>
      </trkpt>
      <trkpt lat="48.71198" lon="1.73603">
        <ele>178</ele>
        <time>2015-04-19T09:58:47.000Z</time>
      </trkpt>
      <trkpt lat="48.71209" lon="1.73607">
        <ele>178</ele>
        <time>2015-04-19T09:58:53.000Z</time>
      </trkpt>
      <trkpt lat="48.71217" lon="1.73613">
        <ele>178</ele>
        <time>2015-04-19T09:59:00.000Z</time>
      </trkpt>
      <trkpt lat="48.71227" lon="1.73614">
        <ele>177.8</ele>
        <time>2015-04-19T09:59:08.000Z</time>
      </trkpt>
      <trkpt lat="48.71238" lon="1.73616">
        <ele>177.4</ele>
        <time>2015-04-19T09:59:15.000Z</time>
      </trkpt>
      <trkpt lat="48.71249" lon="1.73617">
        <ele>177</ele>
        <time>2015-04-19T09:59:22.000Z</time>
      </trkpt>
      <trkpt lat="48.71257" lon="1.73617">
        <ele>176.6</ele>
        <time>2015-04-19T09:59:28.000Z</time>
      </trkpt>
      <trkpt lat="48.71266" lon="1.73614">
        <ele>175.9</ele>
        <time>2015-04-19T09:59:35.000Z</time>
      </trkpt>
      <trkpt lat="48.71267" lon="1.73613">
        <ele>175.8</ele>
        <time>2015-04-19T09:59:36.000Z</time>
      </trkpt>
      <trkpt lat="48.71274" lon="1.73608">
        <ele>175.3</ele>
        <time>2015-04-19T09:59:42.000Z</time>
      </trkpt>
      <trkpt lat="48.71278" lon="1.73606">
        <ele>175.1</ele>
        <time>2015-04-19T09:59:45.000Z</time>
      </trkpt>
      <trkpt lat="48.71286" lon="1.73594">
        <ele>173.7</ele>
        <time>2015-04-19T09:59:53.000Z</time>
      </trkpt>
      <trkpt lat="48.71293" lon="1.73584">
        <ele>172.6</ele>
        <time>2015-04-19T10:00:00.000Z</time>
      </trkpt>
      <trkpt lat="48.71295" lon="1.73577">
        <ele>172.7</ele>
        <time>2015-04-19T10:00:03.000Z</time>
      </trkpt>
      <trkpt lat="48.71298" lon="1.73571">
        <ele>172.3</ele>
        <time>2015-04-19T10:00:07.000Z</time>
      </trkpt>
      <trkpt lat="48.71302" lon="1.73565">
        <ele>172</ele>
        <time>2015-04-19T10:00:11.000Z</time>
      </trkpt>
      <trkpt lat="48.71302" lon="1.73562">
        <ele>172</ele>
        <time>2015-04-19T10:00:13.000Z</time>
      </trkpt>
      <trkpt lat="48.71304" lon="1.73552">
        <ele>172.5</ele>
        <time>2015-04-19T10:00:20.000Z</time>
      </trkpt>
      <trkpt lat="48.71309" lon="1.73541">
        <ele>172.1</ele>
        <time>2015-04-19T10:00:26.000Z</time>
      </trkpt>
      <trkpt lat="48.71313" lon="1.7354">
        <ele>170.9</ele>
        <time>2015-04-19T10:00:30.000Z</time>
      </trkpt>
      <trkpt lat="48.71322" lon="1.73533">
        <ele>169.5</ele>
        <time>2015-04-19T10:00:37.000Z</time>
      </trkpt>
      <trkpt lat="48.71329" lon="1.73526">
        <ele>169.3</ele>
        <time>2015-04-19T10:00:43.000Z</time>
      </trkpt>
      <trkpt lat="48.71332" lon="1.73522">
        <ele>169.6</ele>
        <time>2015-04-19T10:00:46.000Z</time>
      </trkpt>
      <trkpt lat="48.71343" lon="1.73527">
        <ele>169.1</ele>
        <time>2015-04-19T10:00:53.000Z</time>
      </trkpt>
      <trkpt lat="48.71348" lon="1.73533">
        <ele>168.4</ele>
        <time>2015-04-19T10:00:57.000Z</time>
      </trkpt>
      <trkpt lat="48.71354" lon="1.73541">
        <ele>167.2</ele>
        <time>2015-04-19T10:01:03.000Z</time>
      </trkpt>
      <trkpt lat="48.7136" lon="1.73548">
        <ele>166.5</ele>
        <time>2015-04-19T10:01:08.000Z</time>
      </trkpt>
      <trkpt lat="48.71372" lon="1.7356">
        <ele>164.5</ele>
        <time>2015-04-19T10:01:17.000Z</time>
      </trkpt>
      <trkpt lat="48.71381" lon="1.73571">
        <ele>163.4</ele>
        <time>2015-04-19T10:01:25.000Z</time>
      </trkpt>
      <trkpt lat="48.71388" lon="1.73573">
        <ele>163.7</ele>
        <time>2015-04-19T10:01:31.000Z</time>
      </trkpt>
      <trkpt lat="48.71398" lon="1.73575">
        <ele>162.8</ele>
        <time>2015-04-19T10:01:37.000Z</time>
      </trkpt>
      <trkpt lat="48.71407" lon="1.73574">
        <ele>162.1</ele>
        <time>2015-04-19T10:01:44.000Z</time>
      </trkpt>
      <trkpt lat="48.71418" lon="1.73574">
        <ele>161.2</ele>
        <time>2015-04-19T10:01:51.000Z</time>
      </trkpt>
      <trkpt lat="48.71428" lon="1.73574">
        <ele>159.8</ele>
        <time>2015-04-19T10:01:58.000Z</time>
      </trkpt>
      <trkpt lat="48.71435" lon="1.73573">
        <ele>158.9</ele>
        <time>2015-04-19T10:02:03.000Z</time>
      </trkpt>
      <trkpt lat="48.71445" lon="1.7357">
        <ele>157.5</ele>
        <time>2015-04-19T10:02:10.000Z</time>
      </trkpt>
      <trkpt lat="48.7145" lon="1.73567">
        <ele>156.5</ele>
        <time>2015-04-19T10:02:15.000Z</time>
      </trkpt>
      <trkpt lat="48.71457" lon="1.73563">
        <ele>155.3</ele>
        <time>2015-04-19T10:02:20.000Z</time>
      </trkpt>
      <trkpt lat="48.71464" lon="1.73559">
        <ele>154.2</ele>
        <time>2015-04-19T10:02:26.000Z</time>
      </trkpt>
      <trkpt lat="48.71472" lon="1.73556">
        <ele>153</ele>
        <time>2015-04-19T10:02:32.000Z</time>
      </trkpt>
      <trkpt lat="48.71483" lon="1.73556">
        <ele>151.8</ele>
        <time>2015-04-19T10:02:40.000Z</time>
      </trkpt>
      <trkpt lat="48.71486" lon="1.73555">
        <ele>151.5</ele>
        <time>2015-04-19T10:02:42.000Z</time>
      </trkpt>
      <trkpt lat="48.7149" lon="1.73555">
        <ele>151</ele>
        <time>2015-04-19T10:02:44.000Z</time>
      </trkpt>
      <trkpt lat="48.715" lon="1.73554">
        <ele>150</ele>
        <time>2015-04-19T10:02:50.000Z</time>
      </trkpt>
      <trkpt lat="48.71501" lon="1.73554">
        <ele>149.8</ele>
        <time>2015-04-19T10:02:51.000Z</time>
      </trkpt>
      <trkpt lat="48.71512" lon="1.7355">
        <ele>148.8</ele>
        <time>2015-04-19T10:02:59.000Z</time>
      </trkpt>
      <trkpt lat="48.71521" lon="1.7355">
        <ele>148</ele>
        <time>2015-04-19T10:03:05.000Z</time>
      </trkpt>
      <trkpt lat="48.71532" lon="1.73548">
        <ele>147.3</ele>
        <time>2015-04-19T10:03:12.000Z</time>
      </trkpt>
      <trkpt lat="48.71543" lon="1.73546">
        <ele>146.8</ele>
        <time>2015-04-19T10:03:20.000Z</time>
      </trkpt>
      <trkpt lat="48.71552" lon="1.73544">
        <ele>146.4</ele>
        <time>2015-04-19T10:03:27.000Z</time>
      </trkpt>
      <trkpt lat="48.71563" lon="1.73542">
        <ele>145.7</ele>
        <time>2015-04-19T10:03:35.000Z</time>
      </trkpt>
      <trkpt lat="48.71573" lon="1.73538">
        <ele>144.8</ele>
        <time>2015-04-19T10:03:43.000Z</time>
      </trkpt>
      <trkpt lat="48.71575" lon="1.73538">
        <ele>144.6</ele>
        <time>2015-04-19T10:03:44.000Z</time>
      </trkpt>
      <trkpt lat="48.71585" lon="1.73535">
        <ele>143.6</ele>
        <time>2015-04-19T10:03:50.000Z</time>
      </trkpt>
      <trkpt lat="48.71594" lon="1.73533">
        <ele>143.1</ele>
        <time>2015-04-19T10:03:56.000Z</time>
      </trkpt>
      <trkpt lat="48.71601" lon="1.73531">
        <ele>142.6</ele>
        <time>2015-04-19T10:04:01.000Z</time>
      </trkpt>
      <trkpt lat="48.71613" lon="1.73529">
        <ele>141.9</ele>
        <time>2015-04-19T10:04:09.000Z</time>
      </trkpt>
      <trkpt lat="48.71623" lon="1.73526">
        <ele>141.6</ele>
        <time>2015-04-19T10:04:16.000Z</time>
      </trkpt>
      <trkpt lat="48.71633" lon="1.73521">
        <ele>141.5</ele>
        <time>2015-04-19T10:04:23.000Z</time>
      </trkpt>
      <trkpt lat="48.71644" lon="1.73519">
        <ele>141.1</ele>
        <time>2015-04-19T10:04:31.000Z</time>
      </trkpt>
      <trkpt lat="48.71649" lon="1.73518">
        <ele>140.8</ele>
        <time>2015-04-19T10:04:35.000Z</time>
      </trkpt>
      <trkpt lat="48.71655" lon="1.73517">
        <ele>140.6</ele>
        <time>2015-04-19T10:04:39.000Z</time>
      </trkpt>
      <trkpt lat="48.71665" lon="1.73515">
        <ele>140.1</ele>
        <time>2015-04-19T10:04:46.000Z</time>
      </trkpt>
      <trkpt lat="48.71671" lon="1.73513">
        <ele>139.7</ele>
        <time>2015-04-19T10:04:50.000Z</time>
      </trkpt>
      <trkpt lat="48.71682" lon="1.73511">
        <ele>138.9</ele>
        <time>2015-04-19T10:04:57.000Z</time>
      </trkpt>
      <trkpt lat="48.71692" lon="1.73509">
        <ele>138.2</ele>
        <time>2015-04-19T10:05:04.000Z</time>
      </trkpt>
      <trkpt lat="48.71702" lon="1.73507">
        <ele>137.3</ele>
        <time>2015-04-19T10:05:10.000Z</time>
      </trkpt>
      <trkpt lat="48.7171" lon="1.73508">
        <ele>136.7</ele>
        <time>2015-04-19T10:05:15.000Z</time>
      </trkpt>
      <trkpt lat="48.71718" lon="1.73505">
        <ele>135.7</ele>
        <time>2015-04-19T10:05:20.000Z</time>
      </trkpt>
      <trkpt lat="48.71732" lon="1.73501">
        <ele>134.3</ele>
        <time>2015-04-19T10:05:30.000Z</time>
      </trkpt>
      <trkpt lat="48.7174" lon="1.73499">
        <ele>133.8</ele>
        <time>2015-04-19T10:05:35.000Z</time>
      </trkpt>
      <trkpt lat="48.71749" lon="1.73492">
        <ele>133.4</ele>
        <time>2015-04-19T10:05:43.000Z</time>
      </trkpt>
      <trkpt lat="48.7175" lon="1.73491">
        <ele>133.3</ele>
        <time>2015-04-19T10:05:44.000Z</time>
      </trkpt>
      <trkpt lat="48.71753" lon="1.7348">
        <ele>133.5</ele>
        <time>2015-04-19T10:05:50.000Z</time>
      </trkpt>
      <trkpt lat="48.7175" lon="1.73458">
        <ele>134</ele>
        <time>2015-04-19T10:05:56.000Z</time>
      </trkpt>
      <trkpt lat="48.71746" lon="1.73433">
        <ele>133.9</ele>
        <time>2015-04-19T10:06:02.000Z</time>
      </trkpt>
      <trkpt lat="48.71741" lon="1.73405">
        <ele>133.3</ele>
        <time>2015-04-19T10:06:08.000Z</time>
      </trkpt>
      <trkpt lat="48.71734" lon="1.73383">
        <ele>133.1</ele>
        <time>2015-04-19T10:06:13.000Z</time>
      </trkpt>
      <trkpt lat="48.71728" lon="1.73359">
        <ele>133.5</ele>
        <time>2015-04-19T10:06:18.000Z</time>
      </trkpt>
      <trkpt lat="48.71722" lon="1.7333">
        <ele>133</ele>
        <time>2015-04-19T10:06:24.000Z</time>
      </trkpt>
      <trkpt lat="48.71714" lon="1.73305">
        <ele>133.3</ele>
        <time>2015-04-19T10:06:30.000Z</time>
      </trkpt>
      <trkpt lat="48.7171" lon="1.73282">
        <ele>133</ele>
        <time>2015-04-19T10:06:35.000Z</time>
      </trkpt>
      <trkpt lat="48.71706" lon="1.73255">
        <ele>133.2</ele>
        <time>2015-04-19T10:06:41.000Z</time>
      </trkpt>
      <trkpt lat="48.71701" lon="1.73218">
        <ele>133.4</ele>
        <time>2015-04-19T10:06:49.000Z</time>
      </trkpt>
      <trkpt lat="48.71697" lon="1.73195">
        <ele>132.9</ele>
        <time>2015-04-19T10:06:54.000Z</time>
      </trkpt>
      <trkpt lat="48.71693" lon="1.73173">
        <ele>133.8</ele>
        <time>2015-04-19T10:06:59.000Z</time>
      </trkpt>
      <trkpt lat="48.71689" lon="1.73149">
        <ele>134.2</ele>
        <time>2015-04-19T10:07:04.000Z</time>
      </trkpt>
      <trkpt lat="48.71684" lon="1.73115">
        <ele>133.5</ele>
        <time>2015-04-19T10:07:11.000Z</time>
      </trkpt>
      <trkpt lat="48.71681" lon="1.73092">
        <ele>133.5</ele>
        <time>2015-04-19T10:07:16.000Z</time>
      </trkpt>
      <trkpt lat="48.7168" lon="1.73069">
        <ele>133.3</ele>
        <time>2015-04-19T10:07:21.000Z</time>
      </trkpt>
      <trkpt lat="48.71678" lon="1.73046">
        <ele>133</ele>
        <time>2015-04-19T10:07:26.000Z</time>
      </trkpt>
      <trkpt lat="48.71673" lon="1.73017">
        <ele>132.9</ele>
        <time>2015-04-19T10:07:32.000Z</time>
      </trkpt>
      <trkpt lat="48.71667" lon="1.72995">
        <ele>133</ele>
        <time>2015-04-19T10:07:36.000Z</time>
      </trkpt>
      <trkpt lat="48.71661" lon="1.72987">
        <ele>133.4</ele>
        <time>2015-04-19T10:07:38.000Z</time>
      </trkpt>
      <trkpt lat="48.71648" lon="1.7299">
        <ele>134.3</ele>
        <time>2015-04-19T10:07:43.000Z</time>
      </trkpt>
      <trkpt lat="48.71631" lon="1.73026">
        <ele>137</ele>
        <time>2015-04-19T10:07:51.000Z</time>
      </trkpt>
      <trkpt lat="48.7162" lon="1.7305">
        <ele>138.2</ele>
        <time>2015-04-19T10:07:57.000Z</time>
      </trkpt>
      <trkpt lat="48.71618" lon="1.73052">
        <ele>138.3</ele>
        <time>2015-04-19T10:07:58.000Z</time>
      </trkpt>
      <trkpt lat="48.71616" lon="1.73052">
        <ele>138.5</ele>
        <time>2015-04-19T10:08:02.000Z</time>
      </trkpt>
      <trkpt lat="48.71613" lon="1.73039">
        <ele>139.3</ele>
        <time>2015-04-19T10:08:10.000Z</time>
      </trkpt>
      <trkpt lat="48.71611" lon="1.73024">
        <ele>140</ele>
        <time>2015-04-19T10:08:18.000Z</time>
      </trkpt>
      <trkpt lat="48.7161" lon="1.73017">
        <ele>140.1</ele>
        <time>2015-04-19T10:08:21.000Z</time>
      </trkpt>
      <trkpt lat="48.71611" lon="1.73011">
        <ele>140</ele>
        <time>2015-04-19T10:08:24.000Z</time>
      </trkpt>
      <trkpt lat="48.71613" lon="1.73001">
        <ele>139.7</ele>
        <time>2015-04-19T10:08:30.000Z</time>
      </trkpt>
      <trkpt lat="48.71615" lon="1.72991">
        <ele>139</ele>
        <time>2015-04-19T10:08:38.000Z</time>
      </trkpt>
      <trkpt lat="48.71607" lon="1.72991">
        <ele>140.1</ele>
        <time>2015-04-19T10:08:44.000Z</time>
      </trkpt>
      <trkpt lat="48.71605" lon="1.72991">
        <ele>140.2</ele>
        <time>2015-04-19T10:08:45.000Z</time>
      </trkpt>
      <trkpt lat="48.71597" lon="1.72993">
        <ele>141</ele>
        <time>2015-04-19T10:08:51.000Z</time>
      </trkpt>
      <trkpt lat="48.71588" lon="1.72992">
        <ele>141.8</ele>
        <time>2015-04-19T10:08:58.000Z</time>
      </trkpt>
      <trkpt lat="48.71581" lon="1.72992">
        <ele>142</ele>
        <time>2015-04-19T10:09:04.000Z</time>
      </trkpt>
      <trkpt lat="48.71572" lon="1.72993">
        <ele>141.6</ele>
        <time>2015-04-19T10:09:10.000Z</time>
      </trkpt>
      <trkpt lat="48.71568" lon="1.72993">
        <ele>141.4</ele>
        <time>2015-04-19T10:09:12.000Z</time>
      </trkpt>
      <trkpt lat="48.71558" lon="1.72998">
        <ele>141.1</ele>
        <time>2015-04-19T10:09:19.000Z</time>
      </trkpt>
      <trkpt lat="48.71549" lon="1.72999">
        <ele>141.2</ele>
        <time>2015-04-19T10:09:25.000Z</time>
      </trkpt>
      <trkpt lat="48.71538" lon="1.73003">
        <ele>141.7</ele>
        <time>2015-04-19T10:09:32.000Z</time>
      </trkpt>
      <trkpt lat="48.71535" lon="1.73003">
        <ele>141.8</ele>
        <time>2015-04-19T10:09:34.000Z</time>
      </trkpt>
      <trkpt lat="48.71525" lon="1.73005">
        <ele>142.4</ele>
        <time>2015-04-19T10:09:40.000Z</time>
      </trkpt>
      <trkpt lat="48.71513" lon="1.73008">
        <ele>143.3</ele>
        <time>2015-04-19T10:09:48.000Z</time>
      </trkpt>
      <trkpt lat="48.71504" lon="1.73011">
        <ele>144.1</ele>
        <time>2015-04-19T10:09:54.000Z</time>
      </trkpt>
      <trkpt lat="48.71496" lon="1.73012">
        <ele>144.9</ele>
        <time>2015-04-19T10:10:00.000Z</time>
      </trkpt>
      <trkpt lat="48.71488" lon="1.73013">
        <ele>145.7</ele>
        <time>2015-04-19T10:10:05.000Z</time>
      </trkpt>
      <trkpt lat="48.71481" lon="1.73014">
        <ele>146.6</ele>
        <time>2015-04-19T10:10:11.000Z</time>
      </trkpt>
      <trkpt lat="48.71479" lon="1.73014">
        <ele>146.7</ele>
        <time>2015-04-19T10:10:12.000Z</time>
      </trkpt>
      <trkpt lat="48.7147" lon="1.73018">
        <ele>147.9</ele>
        <time>2015-04-19T10:10:18.000Z</time>
      </trkpt>
      <trkpt lat="48.71465" lon="1.73019">
        <ele>148.6</ele>
        <time>2015-04-19T10:10:21.000Z</time>
      </trkpt>
      <trkpt lat="48.71457" lon="1.73024">
        <ele>149.6</ele>
        <time>2015-04-19T10:10:27.000Z</time>
      </trkpt>
      <trkpt lat="48.71448" lon="1.73025">
        <ele>150.6</ele>
        <time>2015-04-19T10:10:33.000Z</time>
      </trkpt>
      <trkpt lat="48.71444" lon="1.73026">
        <ele>151.1</ele>
        <time>2015-04-19T10:10:36.000Z</time>
      </trkpt>
      <trkpt lat="48.71433" lon="1.73029">
        <ele>153.1</ele>
        <time>2015-04-19T10:10:44.000Z</time>
      </trkpt>
      <trkpt lat="48.7142" lon="1.73034">
        <ele>154.9</ele>
        <time>2015-04-19T10:10:49.000Z</time>
      </trkpt>
      <trkpt lat="48.71412" lon="1.73035">
        <ele>156.7</ele>
        <time>2015-04-19T10:10:53.000Z</time>
      </trkpt>
      <trkpt lat="48.71405" lon="1.73038">
        <ele>158.1</ele>
        <time>2015-04-19T10:10:58.000Z</time>
      </trkpt>
      <trkpt lat="48.71398" lon="1.73033">
        <ele>160.1</ele>
        <time>2015-04-19T10:11:04.000Z</time>
      </trkpt>
      <trkpt lat="48.71396" lon="1.73026">
        <ele>161.2</ele>
        <time>2015-04-19T10:11:09.000Z</time>
      </trkpt>
      <trkpt lat="48.71393" lon="1.73015">
        <ele>162.3</ele>
        <time>2015-04-19T10:11:16.000Z</time>
      </trkpt>
      <trkpt lat="48.7139" lon="1.73012">
        <ele>163.4</ele>
        <time>2015-04-19T10:11:19.000Z</time>
      </trkpt>
      <trkpt lat="48.71386" lon="1.73012">
        <ele>164.6</ele>
        <time>2015-04-19T10:11:22.000Z</time>
      </trkpt>
      <trkpt lat="48.71375" lon="1.73011">
        <ele>168.4</ele>
        <time>2015-04-19T10:11:28.000Z</time>
      </trkpt>
      <trkpt lat="48.71372" lon="1.73009">
        <ele>169.4</ele>
        <time>2015-04-19T10:11:30.000Z</time>
      </trkpt>
      <trkpt lat="48.7137" lon="1.73008">
        <ele>170.3</ele>
        <time>2015-04-19T10:11:32.000Z</time>
      </trkpt>
      <trkpt lat="48.71365" lon="1.73008">
        <ele>172.1</ele>
        <time>2015-04-19T10:11:37.000Z</time>
      </trkpt>
      <trkpt lat="48.71356" lon="1.73015">
        <ele>173.9</ele>
        <time>2015-04-19T10:11:45.000Z</time>
      </trkpt>
      <trkpt lat="48.71349" lon="1.73014">
        <ele>175.4</ele>
        <time>2015-04-19T10:11:52.000Z</time>
      </trkpt>
      <trkpt lat="48.71346" lon="1.73012">
        <ele>176.1</ele>
        <time>2015-04-19T10:11:55.000Z</time>
      </trkpt>
      <trkpt lat="48.71341" lon="1.73005">
        <ele>177.3</ele>
        <time>2015-04-19T10:12:02.000Z</time>
      </trkpt>
      <trkpt lat="48.71337" lon="1.73001">
        <ele>178.4</ele>
        <time>2015-04-19T10:12:06.000Z</time>
      </trkpt>
      <trkpt lat="48.71337" lon="1.72997">
        <ele>178.3</ele>
        <time>2015-04-19T10:12:11.000Z</time>
      </trkpt>
      <trkpt lat="48.71337" lon="1.72998">
        <ele>178.3</ele>
        <time>2015-04-19T10:12:14.000Z</time>
      </trkpt>
      <trkpt lat="48.71343" lon="1.72995">
        <ele>177.3</ele>
        <time>2015-04-19T10:12:23.000Z</time>
      </trkpt>
      <trkpt lat="48.71346" lon="1.72989">
        <ele>176.8</ele>
        <time>2015-04-19T10:12:26.000Z</time>
      </trkpt>
      <trkpt lat="48.71352" lon="1.72982">
        <ele>176.1</ele>
        <time>2015-04-19T10:12:32.000Z</time>
      </trkpt>
      <trkpt lat="48.71354" lon="1.7297">
        <ele>176</ele>
        <time>2015-04-19T10:12:38.000Z</time>
      </trkpt>
      <trkpt lat="48.71351" lon="1.72953">
        <ele>175.6</ele>
        <time>2015-04-19T10:12:45.000Z</time>
      </trkpt>
      <trkpt lat="48.71346" lon="1.72934">
        <ele>175.3</ele>
        <time>2015-04-19T10:12:53.000Z</time>
      </trkpt>
      <trkpt lat="48.71344" lon="1.72921">
        <ele>174.8</ele>
        <time>2015-04-19T10:12:59.000Z</time>
      </trkpt>
      <trkpt lat="48.71342" lon="1.72911">
        <ele>174.7</ele>
        <time>2015-04-19T10:13:04.000Z</time>
      </trkpt>
      <trkpt lat="48.71341" lon="1.72906">
        <ele>174.4</ele>
        <time>2015-04-19T10:13:06.000Z</time>
      </trkpt>
      <trkpt lat="48.7134" lon="1.72897">
        <ele>174</ele>
        <time>2015-04-19T10:13:10.000Z</time>
      </trkpt>
      <trkpt lat="48.7134" lon="1.72889">
        <ele>173.3</ele>
        <time>2015-04-19T10:13:13.000Z</time>
      </trkpt>
      <trkpt lat="48.71339" lon="1.72882">
        <ele>173</ele>
        <time>2015-04-19T10:13:16.000Z</time>
      </trkpt>
      <trkpt lat="48.71338" lon="1.72875">
        <ele>172.6</ele>
        <time>2015-04-19T10:13:20.000Z</time>
      </trkpt>
      <trkpt lat="48.71336" lon="1.72862">
        <ele>172</ele>
        <time>2015-04-19T10:13:26.000Z</time>
      </trkpt>
      <trkpt lat="48.71332" lon="1.72852">
        <ele>171.3</ele>
        <time>2015-04-19T10:13:33.000Z</time>
      </trkpt>
      <trkpt lat="48.7133" lon="1.7284">
        <ele>169.4</ele>
        <time>2015-04-19T10:13:38.000Z</time>
      </trkpt>
      <trkpt lat="48.71329" lon="1.72834">
        <ele>168.5</ele>
        <time>2015-04-19T10:13:41.000Z</time>
      </trkpt>
      <trkpt lat="48.71329" lon="1.72822">
        <ele>167.3</ele>
        <time>2015-04-19T10:13:47.000Z</time>
      </trkpt>
      <trkpt lat="48.71328" lon="1.72817">
        <ele>167.5</ele>
        <time>2015-04-19T10:13:49.000Z</time>
      </trkpt>
      <trkpt lat="48.71325" lon="1.72805">
        <ele>167.5</ele>
        <time>2015-04-19T10:13:54.000Z</time>
      </trkpt>
      <trkpt lat="48.71325" lon="1.7279">
        <ele>166.7</ele>
        <time>2015-04-19T10:14:01.000Z</time>
      </trkpt>
      <trkpt lat="48.71326" lon="1.72783">
        <ele>166</ele>
        <time>2015-04-19T10:14:05.000Z</time>
      </trkpt>
      <trkpt lat="48.71323" lon="1.72765">
        <ele>167.2</ele>
        <time>2015-04-19T10:14:13.000Z</time>
      </trkpt>
      <trkpt lat="48.7132" lon="1.72754">
        <ele>168.3</ele>
        <time>2015-04-19T10:14:18.000Z</time>
      </trkpt>
      <trkpt lat="48.71317" lon="1.72737">
        <ele>169.4</ele>
        <time>2015-04-19T10:14:25.000Z</time>
      </trkpt>
      <trkpt lat="48.71315" lon="1.72725">
        <ele>169.5</ele>
        <time>2015-04-19T10:14:31.000Z</time>
      </trkpt>
      <trkpt lat="48.71312" lon="1.72709">
        <ele>169.9</ele>
        <time>2015-04-19T10:14:38.000Z</time>
      </trkpt>
      <trkpt lat="48.71311" lon="1.72697">
        <ele>169.7</ele>
        <time>2015-04-19T10:14:43.000Z</time>
      </trkpt>
      <trkpt lat="48.7131" lon="1.72693">
        <ele>169.7</ele>
        <time>2015-04-19T10:14:45.000Z</time>
      </trkpt>
      <trkpt lat="48.71309" lon="1.72685">
        <ele>169.8</ele>
        <time>2015-04-19T10:14:49.000Z</time>
      </trkpt>
      <trkpt lat="48.71307" lon="1.72672">
        <ele>169.8</ele>
        <time>2015-04-19T10:14:55.000Z</time>
      </trkpt>
      <trkpt lat="48.71306" lon="1.72657">
        <ele>169.4</ele>
        <time>2015-04-19T10:15:02.000Z</time>
      </trkpt>
      <trkpt lat="48.71305" lon="1.72642">
        <ele>169.3</ele>
        <time>2015-04-19T10:15:09.000Z</time>
      </trkpt>
      <trkpt lat="48.71303" lon="1.72627">
        <ele>169.7</ele>
        <time>2015-04-19T10:15:16.000Z</time>
      </trkpt>
      <trkpt lat="48.71301" lon="1.72612">
        <ele>170.5</ele>
        <time>2015-04-19T10:15:23.000Z</time>
      </trkpt>
      <trkpt lat="48.71299" lon="1.72601">
        <ele>171.6</ele>
        <time>2015-04-19T10:15:29.000Z</time>
      </trkpt>
      <trkpt lat="48.71299" lon="1.72596">
        <ele>171.9</ele>
        <time>2015-04-19T10:15:31.000Z</time>
      </trkpt>
      <trkpt lat="48.71297" lon="1.72588">
        <ele>172.7</ele>
        <time>2015-04-19T10:15:35.000Z</time>
      </trkpt>
      <trkpt lat="48.71294" lon="1.7257">
        <ele>173.4</ele>
        <time>2015-04-19T10:15:43.000Z</time>
      </trkpt>
      <trkpt lat="48.71293" lon="1.72556">
        <ele>173.7</ele>
        <time>2015-04-19T10:15:50.000Z</time>
      </trkpt>
      <trkpt lat="48.71293" lon="1.72542">
        <ele>173.3</ele>
        <time>2015-04-19T10:15:57.000Z</time>
      </trkpt>
      <trkpt lat="48.71291" lon="1.72527">
        <ele>173.1</ele>
        <time>2015-04-19T10:16:04.000Z</time>
      </trkpt>
      <trkpt lat="48.71289" lon="1.72521">
        <ele>173</ele>
        <time>2015-04-19T10:16:07.000Z</time>
      </trkpt>
      <trkpt lat="48.71289" lon="1.72512">
        <ele>172.1</ele>
        <time>2015-04-19T10:16:12.000Z</time>
      </trkpt>
      <trkpt lat="48.71288" lon="1.72499">
        <ele>171.4</ele>
        <time>2015-04-19T10:16:18.000Z</time>
      </trkpt>
      <trkpt lat="48.71287" lon="1.7249">
        <ele>170.9</ele>
        <time>2015-04-19T10:16:22.000Z</time>
      </trkpt>
      <trkpt lat="48.71284" lon="1.72472">
        <ele>170.7</ele>
        <time>2015-04-19T10:16:29.000Z</time>
      </trkpt>
      <trkpt lat="48.7128" lon="1.72451">
        <ele>171.5</ele>
        <time>2015-04-19T10:16:37.000Z</time>
      </trkpt>
      <trkpt lat="48.71278" lon="1.72445">
        <ele>171.9</ele>
        <time>2015-04-19T10:16:39.000Z</time>
      </trkpt>
      <trkpt lat="48.7128" lon="1.72433">
        <ele>170.5</ele>
        <time>2015-04-19T10:16:46.000Z</time>
      </trkpt>
      <trkpt lat="48.71283" lon="1.72424">
        <ele>169</ele>
        <time>2015-04-19T10:16:51.000Z</time>
      </trkpt>
      <trkpt lat="48.71285" lon="1.72422">
        <ele>168.5</ele>
        <time>2015-04-19T10:16:52.000Z</time>
      </trkpt>
      <trkpt lat="48.7129" lon="1.7241">
        <ele>166.1</ele>
        <time>2015-04-19T10:16:59.000Z</time>
      </trkpt>
      <trkpt lat="48.71294" lon="1.72401">
        <ele>164.4</ele>
        <time>2015-04-19T10:17:04.000Z</time>
      </trkpt>
      <trkpt lat="48.71297" lon="1.72385">
        <ele>163.4</ele>
        <time>2015-04-19T10:17:09.000Z</time>
      </trkpt>
      <trkpt lat="48.71306" lon="1.72355">
        <ele>163.2</ele>
        <time>2015-04-19T10:17:15.000Z</time>
      </trkpt>
      <trkpt lat="48.71313" lon="1.72339">
        <ele>161.8</ele>
        <time>2015-04-19T10:17:19.000Z</time>
      </trkpt>
      <trkpt lat="48.71317" lon="1.72321">
        <ele>161.8</ele>
        <time>2015-04-19T10:17:25.000Z</time>
      </trkpt>
      <trkpt lat="48.71324" lon="1.72306">
        <ele>160.5</ele>
        <time>2015-04-19T10:17:32.000Z</time>
      </trkpt>
      <trkpt lat="48.71327" lon="1.72302">
        <ele>159.4</ele>
        <time>2015-04-19T10:17:35.000Z</time>
      </trkpt>
      <trkpt lat="48.71329" lon="1.72297">
        <ele>158.7</ele>
        <time>2015-04-19T10:17:39.000Z</time>
      </trkpt>
      <trkpt lat="48.71337" lon="1.72285">
        <ele>155.9</ele>
        <time>2015-04-19T10:17:46.000Z</time>
      </trkpt>
      <trkpt lat="48.71337" lon="1.7227">
        <ele>156.2</ele>
        <time>2015-04-19T10:17:52.000Z</time>
      </trkpt>
      <trkpt lat="48.71338" lon="1.72268">
        <ele>156</ele>
        <time>2015-04-19T10:17:53.000Z</time>
      </trkpt>
      <trkpt lat="48.71339" lon="1.72256">
        <ele>155.9</ele>
        <time>2015-04-19T10:18:00.000Z</time>
      </trkpt>
      <trkpt lat="48.71344" lon="1.72244">
        <ele>154.6</ele>
        <time>2015-04-19T10:18:06.000Z</time>
      </trkpt>
      <trkpt lat="48.71348" lon="1.72233">
        <ele>153.2</ele>
        <time>2015-04-19T10:18:11.000Z</time>
      </trkpt>
      <trkpt lat="48.71356" lon="1.72219">
        <ele>150.8</ele>
        <time>2015-04-19T10:18:18.000Z</time>
      </trkpt>
      <trkpt lat="48.71358" lon="1.72215">
        <ele>150.3</ele>
        <time>2015-04-19T10:18:20.000Z</time>
      </trkpt>
      <trkpt lat="48.71358" lon="1.72209">
        <ele>150.2</ele>
        <time>2015-04-19T10:18:24.000Z</time>
      </trkpt>
      <trkpt lat="48.7136" lon="1.72197">
        <ele>150.1</ele>
        <time>2015-04-19T10:18:30.000Z</time>
      </trkpt>
      <trkpt lat="48.71362" lon="1.72185">
        <ele>149.5</ele>
        <time>2015-04-19T10:18:35.000Z</time>
      </trkpt>
      <trkpt lat="48.71368" lon="1.72176">
        <ele>147.7</ele>
        <time>2015-04-19T10:18:41.000Z</time>
      </trkpt>
      <trkpt lat="48.71375" lon="1.72169">
        <ele>146.1</ele>
        <time>2015-04-19T10:18:47.000Z</time>
      </trkpt>
      <trkpt lat="48.71377" lon="1.72165">
        <ele>145.7</ele>
        <time>2015-04-19T10:18:50.000Z</time>
      </trkpt>
      <trkpt lat="48.71381" lon="1.72157">
        <ele>144.9</ele>
        <time>2015-04-19T10:18:55.000Z</time>
      </trkpt>
      <trkpt lat="48.71384" lon="1.72149">
        <ele>144.2</ele>
        <time>2015-04-19T10:19:00.000Z</time>
      </trkpt>
      <trkpt lat="48.71388" lon="1.72141">
        <ele>143.2</ele>
        <time>2015-04-19T10:19:04.000Z</time>
      </trkpt>
      <trkpt lat="48.71393" lon="1.72132">
        <ele>141.9</ele>
        <time>2015-04-19T10:19:09.000Z</time>
      </trkpt>
      <trkpt lat="48.71397" lon="1.72122">
        <ele>140.7</ele>
        <time>2015-04-19T10:19:15.000Z</time>
      </trkpt>
      <trkpt lat="48.71399" lon="1.72114">
        <ele>140</ele>
        <time>2015-04-19T10:19:20.000Z</time>
      </trkpt>
      <trkpt lat="48.71404" lon="1.72102">
        <ele>137.9</ele>
        <time>2015-04-19T10:19:28.000Z</time>
      </trkpt>
      <trkpt lat="48.71405" lon="1.72098">
        <ele>137.5</ele>
        <time>2015-04-19T10:19:32.000Z</time>
      </trkpt>
      <trkpt lat="48.71402" lon="1.72093">
        <ele>137.4</ele>
        <time>2015-04-19T10:19:40.000Z</time>
      </trkpt>
      <trkpt lat="48.71391" lon="1.72083">
        <ele>137.7</ele>
        <time>2015-04-19T10:19:47.000Z</time>
      </trkpt>
      <trkpt lat="48.71381" lon="1.72074">
        <ele>138.2</ele>
        <time>2015-04-19T10:19:54.000Z</time>
      </trkpt>
      <trkpt lat="48.71375" lon="1.72065">
        <ele>138.1</ele>
        <time>2015-04-19T10:20:00.000Z</time>
      </trkpt>
      <trkpt lat="48.71367" lon="1.72065">
        <ele>138.8</ele>
        <time>2015-04-19T10:20:06.000Z</time>
      </trkpt>
      <trkpt lat="48.71357" lon="1.72062">
        <ele>139.6</ele>
        <time>2015-04-19T10:20:12.000Z</time>
      </trkpt>
      <trkpt lat="48.71347" lon="1.72051">
        <ele>139.8</ele>
        <time>2015-04-19T10:20:20.000Z</time>
      </trkpt>
      <trkpt lat="48.71345" lon="1.72049">
        <ele>139.9</ele>
        <time>2015-04-19T10:20:22.000Z</time>
      </trkpt>
      <trkpt lat="48.71332" lon="1.72046">
        <ele>141</ele>
        <time>2015-04-19T10:20:30.000Z</time>
      </trkpt>
      <trkpt lat="48.71323" lon="1.72043">
        <ele>141.6</ele>
        <time>2015-04-19T10:20:35.000Z</time>
      </trkpt>
      <trkpt lat="48.71319" lon="1.72041">
        <ele>141.8</ele>
        <time>2015-04-19T10:20:38.000Z</time>
      </trkpt>
      <trkpt lat="48.71309" lon="1.72041">
        <ele>142.6</ele>
        <time>2015-04-19T10:20:44.000Z</time>
      </trkpt>
      <trkpt lat="48.71298" lon="1.72038">
        <ele>143.5</ele>
        <time>2015-04-19T10:20:52.000Z</time>
      </trkpt>
      <trkpt lat="48.71294" lon="1.72037">
        <ele>143.7</ele>
        <time>2015-04-19T10:20:55.000Z</time>
      </trkpt>
      <trkpt lat="48.71287" lon="1.72041">
        <ele>144.9</ele>
        <time>2015-04-19T10:21:01.000Z</time>
      </trkpt>
      <trkpt lat="48.71279" lon="1.72034">
        <ele>144.8</ele>
        <time>2015-04-19T10:21:07.000Z</time>
      </trkpt>
      <trkpt lat="48.71277" lon="1.72032">
        <ele>144.6</ele>
        <time>2015-04-19T10:21:09.000Z</time>
      </trkpt>
      <trkpt lat="48.71272" lon="1.72029">
        <ele>144.4</ele>
        <time>2015-04-19T10:21:12.000Z</time>
      </trkpt>
      <trkpt lat="48.7127" lon="1.72027">
        <ele>144.3</ele>
        <time>2015-04-19T10:21:14.000Z</time>
      </trkpt>
      <trkpt lat="48.71266" lon="1.72029">
        <ele>144.5</ele>
        <time>2015-04-19T10:21:19.000Z</time>
      </trkpt>
      <trkpt lat="48.71261" lon="1.72035">
        <ele>145.5</ele>
        <time>2015-04-19T10:21:25.000Z</time>
      </trkpt>
      <trkpt lat="48.71255" lon="1.72033">
        <ele>145.4</ele>
        <time>2015-04-19T10:21:28.000Z</time>
      </trkpt>
      <trkpt lat="48.71245" lon="1.72036">
        <ele>145.8</ele>
        <time>2015-04-19T10:21:32.000Z</time>
      </trkpt>
      <trkpt lat="48.71229" lon="1.72046">
        <ele>146.5</ele>
        <time>2015-04-19T10:21:38.000Z</time>
      </trkpt>
      <trkpt lat="48.71214" lon="1.72062">
        <ele>148.2</ele>
        <time>2015-04-19T10:21:43.000Z</time>
      </trkpt>
      <trkpt lat="48.71201" lon="1.72081">
        <ele>149.5</ele>
        <time>2015-04-19T10:21:48.000Z</time>
      </trkpt>
      <trkpt lat="48.7119" lon="1.72104">
        <ele>151.4</ele>
        <time>2015-04-19T10:21:53.000Z</time>
      </trkpt>
      <trkpt lat="48.71181" lon="1.72125">
        <ele>154</ele>
        <time>2015-04-19T10:21:57.000Z</time>
      </trkpt>
      <trkpt lat="48.71179" lon="1.72148">
        <ele>156.6</ele>
        <time>2015-04-19T10:22:01.000Z</time>
      </trkpt>
      <trkpt lat="48.71182" lon="1.72166">
        <ele>159.5</ele>
        <time>2015-04-19T10:22:06.000Z</time>
      </trkpt>
      <trkpt lat="48.71181" lon="1.7217">
        <ele>160.2</ele>
        <time>2015-04-19T10:22:08.000Z</time>
      </trkpt>
      <trkpt lat="48.71183" lon="1.72177">
        <ele>162</ele>
        <time>2015-04-19T10:22:12.000Z</time>
      </trkpt>
      <trkpt lat="48.71187" lon="1.72188">
        <ele>164.9</ele>
        <time>2015-04-19T10:22:20.000Z</time>
      </trkpt>
      <trkpt lat="48.71188" lon="1.7219">
        <ele>165.8</ele>
        <time>2015-04-19T10:22:22.000Z</time>
      </trkpt>
      <trkpt lat="48.7119" lon="1.72196">
        <ele>167.4</ele>
        <time>2015-04-19T10:22:26.000Z</time>
      </trkpt>
      <trkpt lat="48.71193" lon="1.72204">
        <ele>168.8</ele>
        <time>2015-04-19T10:22:31.000Z</time>
      </trkpt>
      <trkpt lat="48.71195" lon="1.72205">
        <ele>169.2</ele>
        <time>2015-04-19T10:22:33.000Z</time>
      </trkpt>
      <trkpt lat="48.71197" lon="1.72216">
        <ele>170.5</ele>
        <time>2015-04-19T10:22:41.000Z</time>
      </trkpt>
      <trkpt lat="48.712" lon="1.72226">
        <ele>171.7</ele>
        <time>2015-04-19T10:22:47.000Z</time>
      </trkpt>
      <trkpt lat="48.71202" lon="1.72236">
        <ele>172.5</ele>
        <time>2015-04-19T10:22:52.000Z</time>
      </trkpt>
      <trkpt lat="48.71205" lon="1.72244">
        <ele>173</ele>
        <time>2015-04-19T10:22:56.000Z</time>
      </trkpt>
      <trkpt lat="48.71207" lon="1.72255">
        <ele>173.5</ele>
        <time>2015-04-19T10:23:02.000Z</time>
      </trkpt>
      <trkpt lat="48.71208" lon="1.7226">
        <ele>173.5</ele>
        <time>2015-04-19T10:23:04.000Z</time>
      </trkpt>
      <trkpt lat="48.71213" lon="1.72281">
        <ele>173.8</ele>
        <time>2015-04-19T10:23:14.000Z</time>
      </trkpt>
      <trkpt lat="48.71219" lon="1.72293">
        <ele>174.4</ele>
        <time>2015-04-19T10:23:20.000Z</time>
      </trkpt>
      <trkpt lat="48.71221" lon="1.72299">
        <ele>174.7</ele>
        <time>2015-04-19T10:23:23.000Z</time>
      </trkpt>
      <trkpt lat="48.71226" lon="1.72314">
        <ele>175</ele>
        <time>2015-04-19T10:23:30.000Z</time>
      </trkpt>
      <trkpt lat="48.71231" lon="1.72326">
        <ele>175</ele>
        <time>2015-04-19T10:23:36.000Z</time>
      </trkpt>
      <trkpt lat="48.71233" lon="1.72337">
        <ele>175.1</ele>
        <time>2015-04-19T10:23:42.000Z</time>
      </trkpt>
      <trkpt lat="48.71234" lon="1.72341">
        <ele>175.1</ele>
        <time>2015-04-19T10:23:44.000Z</time>
      </trkpt>
      <trkpt lat="48.71242" lon="1.72359">
        <ele>175.7</ele>
        <time>2015-04-19T10:23:53.000Z</time>
      </trkpt>
      <trkpt lat="48.71247" lon="1.72372">
        <ele>175.9</ele>
        <time>2015-04-19T10:23:59.000Z</time>
      </trkpt>
      <trkpt lat="48.71252" lon="1.72383">
        <ele>175.6</ele>
        <time>2015-04-19T10:24:05.000Z</time>
      </trkpt>
      <trkpt lat="48.71259" lon="1.72398">
        <ele>174.1</ele>
        <time>2015-04-19T10:24:12.000Z</time>
      </trkpt>
      <trkpt lat="48.71263" lon="1.7241">
        <ele>173.6</ele>
        <time>2015-04-19T10:24:17.000Z</time>
      </trkpt>
      <trkpt lat="48.71269" lon="1.72426">
        <ele>172.8</ele>
        <time>2015-04-19T10:24:24.000Z</time>
      </trkpt>
      <trkpt lat="48.71274" lon="1.72441">
        <ele>172.4</ele>
        <time>2015-04-19T10:24:31.000Z</time>
      </trkpt>
      <trkpt lat="48.71274" lon="1.72447">
        <ele>172.7</ele>
        <time>2015-04-19T10:24:36.000Z</time>
      </trkpt>
      <trkpt lat="48.71266" lon="1.7245">
        <ele>173.9</ele>
        <time>2015-04-19T10:24:43.000Z</time>
      </trkpt>
      <trkpt lat="48.7127" lon="1.72445">
        <ele>173.2</ele>
        <time>2015-04-19T10:24:48.000Z</time>
      </trkpt>
      <trkpt lat="48.71274" lon="1.72446">
        <ele>172.6</ele>
        <time>2015-04-19T10:24:52.000Z</time>
      </trkpt>
      <trkpt lat="48.71279" lon="1.72466">
        <ele>172.2</ele>
        <time>2015-04-19T10:24:58.000Z</time>
      </trkpt>
      <trkpt lat="48.71283" lon="1.72491">
        <ele>172.4</ele>
        <time>2015-04-19T10:25:03.000Z</time>
      </trkpt>
      <trkpt lat="48.71287" lon="1.72513">
        <ele>172.9</ele>
        <time>2015-04-19T10:25:08.000Z</time>
      </trkpt>
      <trkpt lat="48.7129" lon="1.72537">
        <ele>173.8</ele>
        <time>2015-04-19T10:25:13.000Z</time>
      </trkpt>
      <trkpt lat="48.71295" lon="1.72567">
        <ele>173.2</ele>
        <time>2015-04-19T10:25:19.000Z</time>
      </trkpt>
      <trkpt lat="48.71298" lon="1.72585">
        <ele>172.5</ele>
        <time>2015-04-19T10:25:24.000Z</time>
      </trkpt>
      <trkpt lat="48.71301" lon="1.72599">
        <ele>171.2</ele>
        <time>2015-04-19T10:25:30.000Z</time>
      </trkpt>
      <trkpt lat="48.71302" lon="1.72612">
        <ele>170.2</ele>
        <time>2015-04-19T10:25:35.000Z</time>
      </trkpt>
      <trkpt lat="48.71301" lon="1.72616">
        <ele>170.3</ele>
        <time>2015-04-19T10:25:37.000Z</time>
      </trkpt>
      <trkpt lat="48.71302" lon="1.7263">
        <ele>170</ele>
        <time>2015-04-19T10:25:43.000Z</time>
      </trkpt>
      <trkpt lat="48.71303" lon="1.72636">
        <ele>169.8</ele>
        <time>2015-04-19T10:25:45.000Z</time>
      </trkpt>
      <trkpt lat="48.71303" lon="1.72651">
        <ele>170.3</ele>
        <time>2015-04-19T10:25:51.000Z</time>
      </trkpt>
      <trkpt lat="48.71308" lon="1.72667">
        <ele>168.8</ele>
        <time>2015-04-19T10:25:58.000Z</time>
      </trkpt>
      <trkpt lat="48.7131" lon="1.72685">
        <ele>169.2</ele>
        <time>2015-04-19T10:26:05.000Z</time>
      </trkpt>
      <trkpt lat="48.71311" lon="1.72701">
        <ele>169.8</ele>
        <time>2015-04-19T10:26:11.000Z</time>
      </trkpt>
      <trkpt lat="48.7131" lon="1.72718">
        <ele>171.5</ele>
        <time>2015-04-19T10:26:19.000Z</time>
      </trkpt>
      <trkpt lat="48.71313" lon="1.72727">
        <ele>170.5</ele>
        <time>2015-04-19T10:26:23.000Z</time>
      </trkpt>
      <trkpt lat="48.71317" lon="1.72749">
        <ele>169.7</ele>
        <time>2015-04-19T10:26:31.000Z</time>
      </trkpt>
      <trkpt lat="48.71319" lon="1.72765">
        <ele>168.9</ele>
        <time>2015-04-19T10:26:37.000Z</time>
      </trkpt>
      <trkpt lat="48.71321" lon="1.72783">
        <ele>168.3</ele>
        <time>2015-04-19T10:26:43.000Z</time>
      </trkpt>
      <trkpt lat="48.71322" lon="1.72799">
        <ele>168.4</ele>
        <time>2015-04-19T10:26:49.000Z</time>
      </trkpt>
      <trkpt lat="48.71327" lon="1.72815">
        <ele>167.7</ele>
        <time>2015-04-19T10:26:55.000Z</time>
      </trkpt>
      <trkpt lat="48.71331" lon="1.72832">
        <ele>167.8</ele>
        <time>2015-04-19T10:26:59.000Z</time>
      </trkpt>
      <trkpt lat="48.71335" lon="1.7285">
        <ele>169.8</ele>
        <time>2015-04-19T10:27:04.000Z</time>
      </trkpt>
      <trkpt lat="48.71338" lon="1.72863">
        <ele>171</ele>
        <time>2015-04-19T10:27:10.000Z</time>
      </trkpt>
      <trkpt lat="48.71338" lon="1.72881">
        <ele>173.2</ele>
        <time>2015-04-19T10:27:18.000Z</time>
      </trkpt>
      <trkpt lat="48.7134" lon="1.72891">
        <ele>173.3</ele>
        <time>2015-04-19T10:27:23.000Z</time>
      </trkpt>
      <trkpt lat="48.71341" lon="1.72901">
        <ele>174</ele>
        <time>2015-04-19T10:27:28.000Z</time>
      </trkpt>
      <trkpt lat="48.71344" lon="1.72913">
        <ele>174.3</ele>
        <time>2015-04-19T10:27:33.000Z</time>
      </trkpt>
      <trkpt lat="48.71347" lon="1.72923">
        <ele>174.1</ele>
        <time>2015-04-19T10:27:38.000Z</time>
      </trkpt>
      <trkpt lat="48.71348" lon="1.72929">
        <ele>174.4</ele>
        <time>2015-04-19T10:27:41.000Z</time>
      </trkpt>
      <trkpt lat="48.71351" lon="1.72945">
        <ele>175.3</ele>
        <time>2015-04-19T10:27:48.000Z</time>
      </trkpt>
      <trkpt lat="48.7135" lon="1.72968">
        <ele>176.5</ele>
        <time>2015-04-19T10:27:58.000Z</time>
      </trkpt>
      <trkpt lat="48.71346" lon="1.72986">
        <ele>176.9</ele>
        <time>2015-04-19T10:28:05.000Z</time>
      </trkpt>
      <trkpt lat="48.71342" lon="1.72992">
        <ele>177.6</ele>
        <time>2015-04-19T10:28:09.000Z</time>
      </trkpt>
      <trkpt lat="48.71332" lon="1.73">
        <ele>179</ele>
        <time>2015-04-19T10:28:15.000Z</time>
      </trkpt>
      <trkpt lat="48.71311" lon="1.73015">
        <ele>178.9</ele>
        <time>2015-04-19T10:28:22.000Z</time>
      </trkpt>
      <trkpt lat="48.71288" lon="1.73029">
        <ele>178.9</ele>
        <time>2015-04-19T10:28:27.000Z</time>
      </trkpt>
      <trkpt lat="48.71277" lon="1.73036">
        <ele>178.4</ele>
        <time>2015-04-19T10:28:29.000Z</time>
      </trkpt>
      <trkpt lat="48.71254" lon="1.7305">
        <ele>178.8</ele>
        <time>2015-04-19T10:28:33.000Z</time>
      </trkpt>
      <trkpt lat="48.71233" lon="1.73062">
        <ele>179</ele>
        <time>2015-04-19T10:28:37.000Z</time>
      </trkpt>
      <trkpt lat="48.71227" lon="1.73064">
        <ele>179</ele>
        <time>2015-04-19T10:28:39.000Z</time>
      </trkpt>
      <trkpt lat="48.7122" lon="1.73068">
        <ele>179</ele>
        <time>2015-04-19T10:28:43.000Z</time>
      </trkpt>
      <trkpt lat="48.71209" lon="1.73076">
        <ele>179</ele>
        <time>2015-04-19T10:28:47.000Z</time>
      </trkpt>
      <trkpt lat="48.71182" lon="1.73091">
        <ele>179</ele>
        <time>2015-04-19T10:28:52.000Z</time>
      </trkpt>
      <trkpt lat="48.71162" lon="1.73103">
        <ele>179</ele>
        <time>2015-04-19T10:28:56.000Z</time>
      </trkpt>
      <trkpt lat="48.71151" lon="1.7311">
        <ele>179</ele>
        <time>2015-04-19T10:29:00.000Z</time>
      </trkpt>
      <trkpt lat="48.71152" lon="1.73108">
        <ele>178.9</ele>
        <time>2015-04-19T10:29:03.000Z</time>
      </trkpt>
      <trkpt lat="48.71153" lon="1.73109">
        <ele>179</ele>
        <time>2015-04-19T10:29:08.000Z</time>
      </trkpt>
      <trkpt lat="48.7115" lon="1.73111">
        <ele>179</ele>
        <time>2015-04-19T10:29:10.000Z</time>
      </trkpt>
      <trkpt lat="48.71143" lon="1.73115">
        <ele>179</ele>
        <time>2015-04-19T10:29:15.000Z</time>
      </trkpt>
      <trkpt lat="48.7114" lon="1.73116">
        <ele>179</ele>
        <time>2015-04-19T10:29:17.000Z</time>
      </trkpt>
      <trkpt lat="48.71124" lon="1.73126">
        <ele>178.5</ele>
        <time>2015-04-19T10:29:26.000Z</time>
      </trkpt>
      <trkpt lat="48.71113" lon="1.73133">
        <ele>178.1</ele>
        <time>2015-04-19T10:29:32.000Z</time>
      </trkpt>
      <trkpt lat="48.71102" lon="1.73138">
        <ele>177.7</ele>
        <time>2015-04-19T10:29:39.000Z</time>
      </trkpt>
      <trkpt lat="48.71089" lon="1.73143">
        <ele>177.2</ele>
        <time>2015-04-19T10:29:47.000Z</time>
      </trkpt>
      <trkpt lat="48.71077" lon="1.73149">
        <ele>176.8</ele>
        <time>2015-04-19T10:29:55.000Z</time>
      </trkpt>
      <trkpt lat="48.71066" lon="1.73148">
        <ele>176.4</ele>
        <time>2015-04-19T10:30:01.000Z</time>
      </trkpt>
      <trkpt lat="48.71051" lon="1.73152">
        <ele>175.8</ele>
        <time>2015-04-19T10:30:10.000Z</time>
      </trkpt>
      <trkpt lat="48.71039" lon="1.73155">
        <ele>175.4</ele>
        <time>2015-04-19T10:30:16.000Z</time>
      </trkpt>
      <trkpt lat="48.71022" lon="1.7316">
        <ele>174.8</ele>
        <time>2015-04-19T10:30:23.000Z</time>
      </trkpt>
      <trkpt lat="48.71001" lon="1.73166">
        <ele>174.1</ele>
        <time>2015-04-19T10:30:30.000Z</time>
      </trkpt>
      <trkpt lat="48.70985" lon="1.73172">
        <ele>173.5</ele>
        <time>2015-04-19T10:30:37.000Z</time>
      </trkpt>
      <trkpt lat="48.70975" lon="1.73175">
        <ele>173.1</ele>
        <time>2015-04-19T10:30:43.000Z</time>
      </trkpt>
      <trkpt lat="48.70964" lon="1.73178">
        <ele>172.8</ele>
        <time>2015-04-19T10:30:49.000Z</time>
      </trkpt>
      <trkpt lat="48.70951" lon="1.73181">
        <ele>172.6</ele>
        <time>2015-04-19T10:30:57.000Z</time>
      </trkpt>
      <trkpt lat="48.70941" lon="1.73181">
        <ele>172.5</ele>
        <time>2015-04-19T10:31:03.000Z</time>
      </trkpt>
      <trkpt lat="48.70933" lon="1.73183">
        <ele>172.3</ele>
        <time>2015-04-19T10:31:09.000Z</time>
      </trkpt>
      <trkpt lat="48.70933" lon="1.73183">
        <ele>172.3</ele>
        <time>2015-04-19T10:31:11.000Z</time>
      </trkpt>
      <trkpt lat="48.7093" lon="1.73183">
        <ele>172.3</ele>
        <time>2015-04-19T10:31:14.000Z</time>
      </trkpt>
      <trkpt lat="48.70918" lon="1.73187">
        <ele>172</ele>
        <time>2015-04-19T10:31:21.000Z</time>
      </trkpt>
      <trkpt lat="48.70907" lon="1.73187">
        <ele>172</ele>
        <time>2015-04-19T10:31:29.000Z</time>
      </trkpt>
      <trkpt lat="48.70895" lon="1.7319">
        <ele>172</ele>
        <time>2015-04-19T10:31:37.000Z</time>
      </trkpt>
      <trkpt lat="48.70881" lon="1.73194">
        <ele>171.7</ele>
        <time>2015-04-19T10:31:46.000Z</time>
      </trkpt>
      <trkpt lat="48.7088" lon="1.73194">
        <ele>171.7</ele>
        <time>2015-04-19T10:31:47.000Z</time>
      </trkpt>
      <trkpt lat="48.7087" lon="1.73196">
        <ele>171.3</ele>
        <time>2015-04-19T10:31:54.000Z</time>
      </trkpt>
      <trkpt lat="48.70864" lon="1.73197">
        <ele>171.1</ele>
        <time>2015-04-19T10:31:58.000Z</time>
      </trkpt>
      <trkpt lat="48.70853" lon="1.73198">
        <ele>171</ele>
        <time>2015-04-19T10:32:05.000Z</time>
      </trkpt>
      <trkpt lat="48.7084" lon="1.732">
        <ele>171</ele>
        <time>2015-04-19T10:32:13.000Z</time>
      </trkpt>
      <trkpt lat="48.70831" lon="1.73202">
        <ele>171</ele>
        <time>2015-04-19T10:32:19.000Z</time>
      </trkpt>
      <trkpt lat="48.70825" lon="1.73202">
        <ele>171</ele>
        <time>2015-04-19T10:32:23.000Z</time>
      </trkpt>
      <trkpt lat="48.70813" lon="1.73206">
        <ele>171</ele>
        <time>2015-04-19T10:32:29.000Z</time>
      </trkpt>
      <trkpt lat="48.70805" lon="1.73208">
        <ele>171</ele>
        <time>2015-04-19T10:32:34.000Z</time>
      </trkpt>
      <trkpt lat="48.70794" lon="1.73214">
        <ele>171</ele>
        <time>2015-04-19T10:32:40.000Z</time>
      </trkpt>
      <trkpt lat="48.70784" lon="1.73217">
        <ele>171</ele>
        <time>2015-04-19T10:32:47.000Z</time>
      </trkpt>
      <trkpt lat="48.70772" lon="1.73219">
        <ele>171</ele>
        <time>2015-04-19T10:32:55.000Z</time>
      </trkpt>
      <trkpt lat="48.70755" lon="1.73225">
        <ele>171</ele>
        <time>2015-04-19T10:33:05.000Z</time>
      </trkpt>
      <trkpt lat="48.70739" lon="1.7323">
        <ele>171.4</ele>
        <time>2015-04-19T10:33:14.000Z</time>
      </trkpt>
      <trkpt lat="48.70724" lon="1.73233">
        <ele>171.9</ele>
        <time>2015-04-19T10:33:23.000Z</time>
      </trkpt>
      <trkpt lat="48.70722" lon="1.73235">
        <ele>172</ele>
        <time>2015-04-19T10:33:24.000Z</time>
      </trkpt>
      <trkpt lat="48.70712" lon="1.73238">
        <ele>172</ele>
        <time>2015-04-19T10:33:30.000Z</time>
      </trkpt>
      <trkpt lat="48.70698" lon="1.7324">
        <ele>172</ele>
        <time>2015-04-19T10:33:39.000Z</time>
      </trkpt>
      <trkpt lat="48.70687" lon="1.73245">
        <ele>172</ele>
        <time>2015-04-19T10:33:45.000Z</time>
      </trkpt>
      <trkpt lat="48.70674" lon="1.73252">
        <ele>172</ele>
        <time>2015-04-19T10:33:52.000Z</time>
      </trkpt>
      <trkpt lat="48.70663" lon="1.73254">
        <ele>172</ele>
        <time>2015-04-19T10:33:59.000Z</time>
      </trkpt>
      <trkpt lat="48.7065" lon="1.73257">
        <ele>172</ele>
        <time>2015-04-19T10:34:07.000Z</time>
      </trkpt>
      <trkpt lat="48.70636" lon="1.73259">
        <ele>172.1</ele>
        <time>2015-04-19T10:34:15.000Z</time>
      </trkpt>
      <trkpt lat="48.70621" lon="1.73266">
        <ele>172.6</ele>
        <time>2015-04-19T10:34:21.000Z</time>
      </trkpt>
      <trkpt lat="48.70618" lon="1.73267">
        <ele>172.8</ele>
        <time>2015-04-19T10:34:23.000Z</time>
      </trkpt>
      <trkpt lat="48.70606" lon="1.73271">
        <ele>173</ele>
        <time>2015-04-19T10:34:30.000Z</time>
      </trkpt>
      <trkpt lat="48.70592" lon="1.73273">
        <ele>173</ele>
        <time>2015-04-19T10:34:39.000Z</time>
      </trkpt>
      <trkpt lat="48.70581" lon="1.73274">
        <ele>173</ele>
        <time>2015-04-19T10:34:46.000Z</time>
      </trkpt>
      <trkpt lat="48.70571" lon="1.73274">
        <ele>173</ele>
        <time>2015-04-19T10:34:53.000Z</time>
      </trkpt>
      <trkpt lat="48.70557" lon="1.73277">
        <ele>173</ele>
        <time>2015-04-19T10:35:01.000Z</time>
      </trkpt>
      <trkpt lat="48.70551" lon="1.7328">
        <ele>172.8</ele>
        <time>2015-04-19T10:35:05.000Z</time>
      </trkpt>
      <trkpt lat="48.70543" lon="1.73284">
        <ele>172.4</ele>
        <time>2015-04-19T10:35:10.000Z</time>
      </trkpt>
      <trkpt lat="48.70533" lon="1.73289">
        <ele>172.1</ele>
        <time>2015-04-19T10:35:17.000Z</time>
      </trkpt>
      <trkpt lat="48.70531" lon="1.73289">
        <ele>172.1</ele>
        <time>2015-04-19T10:35:18.000Z</time>
      </trkpt>
      <trkpt lat="48.70524" lon="1.73291">
        <ele>172</ele>
        <time>2015-04-19T10:35:22.000Z</time>
      </trkpt>
      <trkpt lat="48.7052" lon="1.7329">
        <ele>172</ele>
        <time>2015-04-19T10:35:24.000Z</time>
      </trkpt>
      <trkpt lat="48.70508" lon="1.73295">
        <ele>172</ele>
        <time>2015-04-19T10:35:32.000Z</time>
      </trkpt>
      <trkpt lat="48.70498" lon="1.73298">
        <ele>172</ele>
        <time>2015-04-19T10:35:38.000Z</time>
      </trkpt>
      <trkpt lat="48.70497" lon="1.73298">
        <ele>172</ele>
        <time>2015-04-19T10:35:39.000Z</time>
      </trkpt>
      <trkpt lat="48.70486" lon="1.73298">
        <ele>172</ele>
        <time>2015-04-19T10:35:46.000Z</time>
      </trkpt>
      <trkpt lat="48.70483" lon="1.73299">
        <ele>172</ele>
        <time>2015-04-19T10:35:48.000Z</time>
      </trkpt>
      <trkpt lat="48.7047" lon="1.73306">
        <ele>172</ele>
        <time>2015-04-19T10:35:54.000Z</time>
      </trkpt>
      <trkpt lat="48.70462" lon="1.73307">
        <ele>172</ele>
        <time>2015-04-19T10:35:59.000Z</time>
      </trkpt>
      <trkpt lat="48.70451" lon="1.73309">
        <ele>172</ele>
        <time>2015-04-19T10:36:06.000Z</time>
      </trkpt>
      <trkpt lat="48.70443" lon="1.73311">
        <ele>172</ele>
        <time>2015-04-19T10:36:12.000Z</time>
      </trkpt>
      <trkpt lat="48.70441" lon="1.73312">
        <ele>172</ele>
        <time>2015-04-19T10:36:14.000Z</time>
      </trkpt>
      <trkpt lat="48.70436" lon="1.73315">
        <ele>172</ele>
        <time>2015-04-19T10:36:18.000Z</time>
      </trkpt>
      <trkpt lat="48.70425" lon="1.73316">
        <ele>172</ele>
        <time>2015-04-19T10:36:25.000Z</time>
      </trkpt>
      <trkpt lat="48.70419" lon="1.73318">
        <ele>172</ele>
        <time>2015-04-19T10:36:29.000Z</time>
      </trkpt>
      <trkpt lat="48.70407" lon="1.73321">
        <ele>172</ele>
        <time>2015-04-19T10:36:37.000Z</time>
      </trkpt>
      <trkpt lat="48.70396" lon="1.73324">
        <ele>172</ele>
        <time>2015-04-19T10:36:43.000Z</time>
      </trkpt>
      <trkpt lat="48.70385" lon="1.7333">
        <ele>171.9</ele>
        <time>2015-04-19T10:36:48.000Z</time>
      </trkpt>
      <trkpt lat="48.70379" lon="1.7333">
        <ele>171.6</ele>
        <time>2015-04-19T10:36:52.000Z</time>
      </trkpt>
      <trkpt lat="48.70368" lon="1.73332">
        <ele>171.2</ele>
        <time>2015-04-19T10:36:59.000Z</time>
      </trkpt>
      <trkpt lat="48.70357" lon="1.73333">
        <ele>171</ele>
        <time>2015-04-19T10:37:06.000Z</time>
      </trkpt>
      <trkpt lat="48.70347" lon="1.73334">
        <ele>171</ele>
        <time>2015-04-19T10:37:13.000Z</time>
      </trkpt>
      <trkpt lat="48.70337" lon="1.73336">
        <ele>171</ele>
        <time>2015-04-19T10:37:20.000Z</time>
      </trkpt>
      <trkpt lat="48.70328" lon="1.73338">
        <ele>171</ele>
        <time>2015-04-19T10:37:26.000Z</time>
      </trkpt>
      <trkpt lat="48.70319" lon="1.7334">
        <ele>171</ele>
        <time>2015-04-19T10:37:32.000Z</time>
      </trkpt>
      <trkpt lat="48.70317" lon="1.73341">
        <ele>171</ele>
        <time>2015-04-19T10:37:33.000Z</time>
      </trkpt>
      <trkpt lat="48.70302" lon="1.73341">
        <ele>171</ele>
        <time>2015-04-19T10:37:43.000Z</time>
      </trkpt>
      <trkpt lat="48.70299" lon="1.73342">
        <ele>171</ele>
        <time>2015-04-19T10:37:45.000Z</time>
      </trkpt>
      <trkpt lat="48.7029" lon="1.73346">
        <ele>171</ele>
        <time>2015-04-19T10:37:51.000Z</time>
      </trkpt>
      <trkpt lat="48.7028" lon="1.7335">
        <ele>171</ele>
        <time>2015-04-19T10:37:58.000Z</time>
      </trkpt>
      <trkpt lat="48.70267" lon="1.73355">
        <ele>171</ele>
        <time>2015-04-19T10:38:06.000Z</time>
      </trkpt>
      <trkpt lat="48.70258" lon="1.73358">
        <ele>171</ele>
        <time>2015-04-19T10:38:11.000Z</time>
      </trkpt>
      <trkpt lat="48.70242" lon="1.73368">
        <ele>171</ele>
        <time>2015-04-19T10:38:18.000Z</time>
      </trkpt>
      <trkpt lat="48.70227" lon="1.73372">
        <ele>171</ele>
        <time>2015-04-19T10:38:27.000Z</time>
      </trkpt>
      <trkpt lat="48.70214" lon="1.73377">
        <ele>171</ele>
        <time>2015-04-19T10:38:34.000Z</time>
      </trkpt>
      <trkpt lat="48.70202" lon="1.73382">
        <ele>171</ele>
        <time>2015-04-19T10:38:41.000Z</time>
      </trkpt>
      <trkpt lat="48.70197" lon="1.73383">
        <ele>171</ele>
        <time>2015-04-19T10:38:44.000Z</time>
      </trkpt>
      <trkpt lat="48.70185" lon="1.73388">
        <ele>170.7</ele>
        <time>2015-04-19T10:38:51.000Z</time>
      </trkpt>
      <trkpt lat="48.70184" lon="1.7339">
        <ele>170.6</ele>
        <time>2015-04-19T10:38:52.000Z</time>
      </trkpt>
      <trkpt lat="48.7017" lon="1.73391">
        <ele>170.1</ele>
        <time>2015-04-19T10:39:00.000Z</time>
      </trkpt>
      <trkpt lat="48.70167" lon="1.73389">
        <ele>170</ele>
        <time>2015-04-19T10:39:02.000Z</time>
      </trkpt>
      <trkpt lat="48.70158" lon="1.73382">
        <ele>170</ele>
        <time>2015-04-19T10:39:09.000Z</time>
      </trkpt>
      <trkpt lat="48.70151" lon="1.73392">
        <ele>169.9</ele>
        <time>2015-04-19T10:39:15.000Z</time>
      </trkpt>
      <trkpt lat="48.70149" lon="1.73396">
        <ele>169.8</ele>
        <time>2015-04-19T10:39:17.000Z</time>
      </trkpt>
      <trkpt lat="48.70138" lon="1.73401">
        <ele>169.6</ele>
        <time>2015-04-19T10:39:23.000Z</time>
      </trkpt>
      <trkpt lat="48.70129" lon="1.73403">
        <ele>169.3</ele>
        <time>2015-04-19T10:39:27.000Z</time>
      </trkpt>
      <trkpt lat="48.70125" lon="1.73404">
        <ele>169.2</ele>
        <time>2015-04-19T10:39:28.000Z</time>
      </trkpt>
      <trkpt lat="48.70107" lon="1.7341">
        <ele>169</ele>
        <time>2015-04-19T10:39:33.000Z</time>
      </trkpt>
      <trkpt lat="48.70089" lon="1.73416">
        <ele>169</ele>
        <time>2015-04-19T10:39:38.000Z</time>
      </trkpt>
      <trkpt lat="48.70065" lon="1.73425">
        <ele>168.7</ele>
        <time>2015-04-19T10:39:44.000Z</time>
      </trkpt>
      <trkpt lat="48.70053" lon="1.73426">
        <ele>168.7</ele>
        <time>2015-04-19T10:39:47.000Z</time>
      </trkpt>
      <trkpt lat="48.70029" lon="1.73432">
        <ele>168.5</ele>
        <time>2015-04-19T10:39:53.000Z</time>
      </trkpt>
      <trkpt lat="48.70015" lon="1.73436">
        <ele>168.3</ele>
        <time>2015-04-19T10:39:57.000Z</time>
      </trkpt>
      <trkpt lat="48.69999" lon="1.73439">
        <ele>168.2</ele>
        <time>2015-04-19T10:40:01.000Z</time>
      </trkpt>
      <trkpt lat="48.69978" lon="1.73448">
        <ele>168</ele>
        <time>2015-04-19T10:40:06.000Z</time>
      </trkpt>
      <trkpt lat="48.69957" lon="1.73454">
        <ele>168.4</ele>
        <time>2015-04-19T10:40:11.000Z</time>
      </trkpt>
      <trkpt lat="48.69947" lon="1.73456">
        <ele>168.5</ele>
        <time>2015-04-19T10:40:16.000Z</time>
      </trkpt>
      <trkpt lat="48.69936" lon="1.7346">
        <ele>168.4</ele>
        <time>2015-04-19T10:40:21.000Z</time>
      </trkpt>
      <trkpt lat="48.69927" lon="1.73465">
        <ele>168.3</ele>
        <time>2015-04-19T10:40:26.000Z</time>
      </trkpt>
      <trkpt lat="48.69919" lon="1.73467">
        <ele>168.2</ele>
        <time>2015-04-19T10:40:31.000Z</time>
      </trkpt>
      <trkpt lat="48.69907" lon="1.73473">
        <ele>168.3</ele>
        <time>2015-04-19T10:40:37.000Z</time>
      </trkpt>
      <trkpt lat="48.69897" lon="1.73474">
        <ele>168.7</ele>
        <time>2015-04-19T10:40:43.000Z</time>
      </trkpt>
      <trkpt lat="48.69888" lon="1.73476">
        <ele>169</ele>
        <time>2015-04-19T10:40:48.000Z</time>
      </trkpt>
      <trkpt lat="48.69881" lon="1.73478">
        <ele>169</ele>
        <time>2015-04-19T10:40:52.000Z</time>
      </trkpt>
      <trkpt lat="48.69873" lon="1.73482">
        <ele>169</ele>
        <time>2015-04-19T10:40:58.000Z</time>
      </trkpt>
      <trkpt lat="48.69874" lon="1.73488">
        <ele>169</ele>
        <time>2015-04-19T10:41:03.000Z</time>
      </trkpt>
      <trkpt lat="48.69877" lon="1.73494">
        <ele>169</ele>
        <time>2015-04-19T10:41:07.000Z</time>
      </trkpt>
      <trkpt lat="48.69881" lon="1.73506">
        <ele>169</ele>
        <time>2015-04-19T10:41:13.000Z</time>
      </trkpt>
      <trkpt lat="48.69895" lon="1.73517">
        <ele>168.8</ele>
        <time>2015-04-19T10:41:17.000Z</time>
      </trkpt>
      <trkpt lat="48.69911" lon="1.7353">
        <ele>168.2</ele>
        <time>2015-04-19T10:41:22.000Z</time>
      </trkpt>
      <trkpt lat="48.69924" lon="1.73545">
        <ele>168</ele>
        <time>2015-04-19T10:41:26.000Z</time>
      </trkpt>
      <trkpt lat="48.69935" lon="1.73553">
        <ele>168</ele>
        <time>2015-04-19T10:41:28.000Z</time>
      </trkpt>
      <trkpt lat="48.69952" lon="1.73576">
        <ele>168</ele>
        <time>2015-04-19T10:41:34.000Z</time>
      </trkpt>
      <trkpt lat="48.69969" lon="1.73595">
        <ele>168</ele>
        <time>2015-04-19T10:41:39.000Z</time>
      </trkpt>
      <trkpt lat="48.69987" lon="1.73615">
        <ele>168</ele>
        <time>2015-04-19T10:41:44.000Z</time>
      </trkpt>
      <trkpt lat="48.70003" lon="1.73636">
        <ele>167.9</ele>
        <time>2015-04-19T10:41:49.000Z</time>
      </trkpt>
      <trkpt lat="48.70014" lon="1.73656">
        <ele>167.5</ele>
        <time>2015-04-19T10:41:53.000Z</time>
      </trkpt>
      <trkpt lat="48.7002" lon="1.73674">
        <ele>167.3</ele>
        <time>2015-04-19T10:41:57.000Z</time>
      </trkpt>
      <trkpt lat="48.70035" lon="1.737">
        <ele>166.7</ele>
        <time>2015-04-19T10:42:03.000Z</time>
      </trkpt>
      <trkpt lat="48.70047" lon="1.73705">
        <ele>166.3</ele>
        <time>2015-04-19T10:42:07.000Z</time>
      </trkpt>
      <trkpt lat="48.70061" lon="1.73706">
        <ele>166</ele>
        <time>2015-04-19T10:42:11.000Z</time>
      </trkpt>
      <trkpt lat="48.7008" lon="1.73706">
        <ele>166</ele>
        <time>2015-04-19T10:42:15.000Z</time>
      </trkpt>
      <trkpt lat="48.70094" lon="1.73709">
        <ele>166.4</ele>
        <time>2015-04-19T10:42:18.000Z</time>
      </trkpt>
      <trkpt lat="48.7011" lon="1.73712">
        <ele>167</ele>
        <time>2015-04-19T10:42:22.000Z</time>
      </trkpt>
      <trkpt lat="48.7013" lon="1.73713">
        <ele>167.5</ele>
        <time>2015-04-19T10:42:26.000Z</time>
      </trkpt>
      <trkpt lat="48.70143" lon="1.73715">
        <ele>167.8</ele>
        <time>2015-04-19T10:42:29.000Z</time>
      </trkpt>
      <trkpt lat="48.70168" lon="1.73718">
        <ele>168</ele>
        <time>2015-04-19T10:42:35.000Z</time>
      </trkpt>
      <trkpt lat="48.70194" lon="1.73722">
        <ele>169</ele>
        <time>2015-04-19T10:42:40.000Z</time>
      </trkpt>
      <trkpt lat="48.7022" lon="1.73725">
        <ele>169.9</ele>
        <time>2015-04-19T10:42:47.000Z</time>
      </trkpt>
      <trkpt lat="48.70243" lon="1.73726">
        <ele>170</ele>
        <time>2015-04-19T10:42:54.000Z</time>
      </trkpt>
      <trkpt lat="48.70262" lon="1.73728">
        <ele>170</ele>
        <time>2015-04-19T10:43:00.000Z</time>
      </trkpt>
      <trkpt lat="48.70276" lon="1.73735">
        <ele>170</ele>
        <time>2015-04-19T10:43:05.000Z</time>
      </trkpt>
      <trkpt lat="48.70276" lon="1.7375">
        <ele>170</ele>
        <time>2015-04-19T10:43:10.000Z</time>
      </trkpt>
      <trkpt lat="48.70276" lon="1.73752">
        <ele>170</ele>
        <time>2015-04-19T10:43:11.000Z</time>
      </trkpt>
      <trkpt lat="48.70275" lon="1.73766">
        <ele>170</ele>
        <time>2015-04-19T10:43:17.000Z</time>
      </trkpt>
      <trkpt lat="48.70274" lon="1.73781">
        <ele>170</ele>
        <time>2015-04-19T10:43:23.000Z</time>
      </trkpt>
      <trkpt lat="48.70275" lon="1.73794">
        <ele>170</ele>
        <time>2015-04-19T10:43:28.000Z</time>
      </trkpt>
      <trkpt lat="48.70273" lon="1.7381">
        <ele>170.1</ele>
        <time>2015-04-19T10:43:34.000Z</time>
      </trkpt>
      <trkpt lat="48.7027" lon="1.73824">
        <ele>170.6</ele>
        <time>2015-04-19T10:43:39.000Z</time>
      </trkpt>
      <trkpt lat="48.70269" lon="1.73841">
        <ele>170.7</ele>
        <time>2015-04-19T10:43:46.000Z</time>
      </trkpt>
      <trkpt lat="48.70264" lon="1.73855">
        <ele>170.2</ele>
        <time>2015-04-19T10:43:51.000Z</time>
      </trkpt>
      <trkpt lat="48.70261" lon="1.7387">
        <ele>170.1</ele>
        <time>2015-04-19T10:43:57.000Z</time>
      </trkpt>
      <trkpt lat="48.70255" lon="1.7388">
        <ele>170.1</ele>
        <time>2015-04-19T10:44:02.000Z</time>
      </trkpt>
      <trkpt lat="48.70253" lon="1.73883">
        <ele>170.1</ele>
        <time>2015-04-19T10:44:04.000Z</time>
      </trkpt>
      <trkpt lat="48.70249" lon="1.73891">
        <ele>170</ele>
        <time>2015-04-19T10:44:08.000Z</time>
      </trkpt>
      <trkpt lat="48.70252" lon="1.73907">
        <ele>170</ele>
        <time>2015-04-19T10:44:15.000Z</time>
      </trkpt>
      <trkpt lat="48.70247" lon="1.7392">
        <ele>170</ele>
        <time>2015-04-19T10:44:22.000Z</time>
      </trkpt>
      <trkpt lat="48.70245" lon="1.73923">
        <ele>170</ele>
        <time>2015-04-19T10:44:24.000Z</time>
      </trkpt>
      <trkpt lat="48.7024" lon="1.73933">
        <ele>170</ele>
        <time>2015-04-19T10:44:29.000Z</time>
      </trkpt>
      <trkpt lat="48.70235" lon="1.73941">
        <ele>170</ele>
        <time>2015-04-19T10:44:33.000Z</time>
      </trkpt>
      <trkpt lat="48.70224" lon="1.73952">
        <ele>170</ele>
        <time>2015-04-19T10:44:40.000Z</time>
      </trkpt>
      <trkpt lat="48.70222" lon="1.73953">
        <ele>170</ele>
        <time>2015-04-19T10:44:41.000Z</time>
      </trkpt>
      <trkpt lat="48.70214" lon="1.73961">
        <ele>170</ele>
        <time>2015-04-19T10:44:47.000Z</time>
      </trkpt>
      <trkpt lat="48.70209" lon="1.73971">
        <ele>170</ele>
        <time>2015-04-19T10:44:52.000Z</time>
      </trkpt>
      <trkpt lat="48.702" lon="1.73981">
        <ele>170</ele>
        <time>2015-04-19T10:44:59.000Z</time>
      </trkpt>
      <trkpt lat="48.70195" lon="1.73988">
        <ele>170</ele>
        <time>2015-04-19T10:45:05.000Z</time>
      </trkpt>
      <trkpt lat="48.70191" lon="1.73998">
        <ele>170</ele>
        <time>2015-04-19T10:45:10.000Z</time>
      </trkpt>
      <trkpt lat="48.70188" lon="1.74007">
        <ele>170</ele>
        <time>2015-04-19T10:45:14.000Z</time>
      </trkpt>
      <trkpt lat="48.70185" lon="1.74019">
        <ele>170</ele>
        <time>2015-04-19T10:45:19.000Z</time>
      </trkpt>
      <trkpt lat="48.70184" lon="1.74031">
        <ele>170</ele>
        <time>2015-04-19T10:45:24.000Z</time>
      </trkpt>
      <trkpt lat="48.70182" lon="1.74048">
        <ele>170</ele>
        <time>2015-04-19T10:45:31.000Z</time>
      </trkpt>
      <trkpt lat="48.70182" lon="1.7405">
        <ele>170</ele>
        <time>2015-04-19T10:45:32.000Z</time>
      </trkpt>
      <trkpt lat="48.7018" lon="1.7406">
        <ele>170</ele>
        <time>2015-04-19T10:45:36.000Z</time>
      </trkpt>
      <trkpt lat="48.70183" lon="1.74071">
        <ele>170</ele>
        <time>2015-04-19T10:45:41.000Z</time>
      </trkpt>
      <trkpt lat="48.70189" lon="1.74087">
        <ele>170</ele>
        <time>2015-04-19T10:45:48.000Z</time>
      </trkpt>
      <trkpt lat="48.70191" lon="1.74101">
        <ele>170</ele>
        <time>2015-04-19T10:45:54.000Z</time>
      </trkpt>
      <trkpt lat="48.70195" lon="1.74113">
        <ele>170</ele>
        <time>2015-04-19T10:46:00.000Z</time>
      </trkpt>
      <trkpt lat="48.702" lon="1.74127">
        <ele>170</ele>
        <time>2015-04-19T10:46:05.000Z</time>
      </trkpt>
      <trkpt lat="48.70202" lon="1.74141">
        <ele>170</ele>
        <time>2015-04-19T10:46:11.000Z</time>
      </trkpt>
      <trkpt lat="48.70204" lon="1.74143">
        <ele>170</ele>
        <time>2015-04-19T10:46:12.000Z</time>
      </trkpt>
      <trkpt lat="48.7021" lon="1.74159">
        <ele>170</ele>
        <time>2015-04-19T10:46:18.000Z</time>
      </trkpt>
      <trkpt lat="48.70215" lon="1.74174">
        <ele>169.7</ele>
        <time>2015-04-19T10:46:24.000Z</time>
      </trkpt>
      <trkpt lat="48.7022" lon="1.74193">
        <ele>169</ele>
        <time>2015-04-19T10:46:32.000Z</time>
      </trkpt>
      <trkpt lat="48.70223" lon="1.74208">
        <ele>169</ele>
        <time>2015-04-19T10:46:38.000Z</time>
      </trkpt>
      <trkpt lat="48.70224" lon="1.74216">
        <ele>169</ele>
        <time>2015-04-19T10:46:42.000Z</time>
      </trkpt>
      <trkpt lat="48.7023" lon="1.74224">
        <ele>169</ele>
        <time>2015-04-19T10:46:48.000Z</time>
      </trkpt>
      <trkpt lat="48.70231" lon="1.74226">
        <ele>169</ele>
        <time>2015-04-19T10:46:50.000Z</time>
      </trkpt>
      <trkpt lat="48.70238" lon="1.74237">
        <ele>168.7</ele>
        <time>2015-04-19T10:46:57.000Z</time>
      </trkpt>
      <trkpt lat="48.70243" lon="1.74245">
        <ele>168.4</ele>
        <time>2015-04-19T10:47:02.000Z</time>
      </trkpt>
      <trkpt lat="48.70245" lon="1.74264">
        <ele>168.2</ele>
        <time>2015-04-19T10:47:10.000Z</time>
      </trkpt>
      <trkpt lat="48.70247" lon="1.74275">
        <ele>168.1</ele>
        <time>2015-04-19T10:47:14.000Z</time>
      </trkpt>
      <trkpt lat="48.7025" lon="1.74291">
        <ele>168</ele>
        <time>2015-04-19T10:47:20.000Z</time>
      </trkpt>
      <trkpt lat="48.70252" lon="1.74303">
        <ele>167.9</ele>
        <time>2015-04-19T10:47:25.000Z</time>
      </trkpt>
      <trkpt lat="48.70255" lon="1.74316">
        <ele>167.5</ele>
        <time>2015-04-19T10:47:30.000Z</time>
      </trkpt>
      <trkpt lat="48.70256" lon="1.74321">
        <ele>167.4</ele>
        <time>2015-04-19T10:47:32.000Z</time>
      </trkpt>
      <trkpt lat="48.70255" lon="1.74334">
        <ele>167</ele>
        <time>2015-04-19T10:47:38.000Z</time>
      </trkpt>
      <trkpt lat="48.70256" lon="1.7434">
        <ele>167</ele>
        <time>2015-04-19T10:47:40.000Z</time>
      </trkpt>
      <trkpt lat="48.70259" lon="1.74347">
        <ele>166.8</ele>
        <time>2015-04-19T10:47:43.000Z</time>
      </trkpt>
      <trkpt lat="48.70261" lon="1.74366">
        <ele>166.4</ele>
        <time>2015-04-19T10:47:50.000Z</time>
      </trkpt>
      <trkpt lat="48.70263" lon="1.74369">
        <ele>166.3</ele>
        <time>2015-04-19T10:47:51.000Z</time>
      </trkpt>
      <trkpt lat="48.70267" lon="1.74388">
        <ele>165.4</ele>
        <time>2015-04-19T10:47:58.000Z</time>
      </trkpt>
      <trkpt lat="48.70273" lon="1.74401">
        <ele>164.7</ele>
        <time>2015-04-19T10:48:03.000Z</time>
      </trkpt>
      <trkpt lat="48.70277" lon="1.74417">
        <ele>164</ele>
        <time>2015-04-19T10:48:09.000Z</time>
      </trkpt>
      <trkpt lat="48.70277" lon="1.74433">
        <ele>164</ele>
        <time>2015-04-19T10:48:15.000Z</time>
      </trkpt>
      <trkpt lat="48.70276" lon="1.74445">
        <ele>164.1</ele>
        <time>2015-04-19T10:48:20.000Z</time>
      </trkpt>
      <trkpt lat="48.70276" lon="1.74456">
        <ele>163.7</ele>
        <time>2015-04-19T10:48:25.000Z</time>
      </trkpt>
      <trkpt lat="48.70276" lon="1.74461">
        <ele>163.5</ele>
        <time>2015-04-19T10:48:27.000Z</time>
      </trkpt>
      <trkpt lat="48.70278" lon="1.74475">
        <ele>163</ele>
        <time>2015-04-19T10:48:32.000Z</time>
      </trkpt>
      <trkpt lat="48.70278" lon="1.74483">
        <ele>163</ele>
        <time>2015-04-19T10:48:35.000Z</time>
      </trkpt>
      <trkpt lat="48.7028" lon="1.74493">
        <ele>163</ele>
        <time>2015-04-19T10:48:39.000Z</time>
      </trkpt>
      <trkpt lat="48.70284" lon="1.74504">
        <ele>162.9</ele>
        <time>2015-04-19T10:48:43.000Z</time>
      </trkpt>
      <trkpt lat="48.70286" lon="1.7452">
        <ele>162.5</ele>
        <time>2015-04-19T10:48:49.000Z</time>
      </trkpt>
      <trkpt lat="48.70287" lon="1.74523">
        <ele>162.4</ele>
        <time>2015-04-19T10:48:50.000Z</time>
      </trkpt>
      <trkpt lat="48.70291" lon="1.74537">
        <ele>162.5</ele>
        <time>2015-04-19T10:48:56.000Z</time>
      </trkpt>
      <trkpt lat="48.70294" lon="1.74551">
        <ele>162.6</ele>
        <time>2015-04-19T10:49:03.000Z</time>
      </trkpt>
      <trkpt lat="48.70295" lon="1.74553">
        <ele>162.6</ele>
        <time>2015-04-19T10:49:04.000Z</time>
      </trkpt>
      <trkpt lat="48.70299" lon="1.74567">
        <ele>162.7</ele>
        <time>2015-04-19T10:49:10.000Z</time>
      </trkpt>
      <trkpt lat="48.70303" lon="1.74582">
        <ele>162.8</ele>
        <time>2015-04-19T10:49:16.000Z</time>
      </trkpt>
      <trkpt lat="48.70302" lon="1.74593">
        <ele>162.8</ele>
        <time>2015-04-19T10:49:20.000Z</time>
      </trkpt>
      <trkpt lat="48.70304" lon="1.74606">
        <ele>162.9</ele>
        <time>2015-04-19T10:49:25.000Z</time>
      </trkpt>
      <trkpt lat="48.70308" lon="1.74627">
        <ele>163.2</ele>
        <time>2015-04-19T10:49:33.000Z</time>
      </trkpt>
      <trkpt lat="48.70312" lon="1.7464">
        <ele>163.5</ele>
        <time>2015-04-19T10:49:38.000Z</time>
      </trkpt>
      <trkpt lat="48.70316" lon="1.7465">
        <ele>163.7</ele>
        <time>2015-04-19T10:49:42.000Z</time>
      </trkpt>
      <trkpt lat="48.70307" lon="1.74657">
        <ele>163.1</ele>
        <time>2015-04-19T10:49:48.000Z</time>
      </trkpt>
      <trkpt lat="48.70305" lon="1.74658">
        <ele>163</ele>
        <time>2015-04-19T10:49:49.000Z</time>
      </trkpt>
      <trkpt lat="48.70291" lon="1.74663">
        <ele>162.9</ele>
        <time>2015-04-19T10:49:56.000Z</time>
      </trkpt>
      <trkpt lat="48.70285" lon="1.74672">
        <ele>163</ele>
        <time>2015-04-19T10:50:00.000Z</time>
      </trkpt>
      <trkpt lat="48.70283" lon="1.74692">
        <ele>163</ele>
        <time>2015-04-19T10:50:08.000Z</time>
      </trkpt>
      <trkpt lat="48.70278" lon="1.74711">
        <ele>163</ele>
        <time>2015-04-19T10:50:15.000Z</time>
      </trkpt>
      <trkpt lat="48.70277" lon="1.74728">
        <ele>163</ele>
        <time>2015-04-19T10:50:22.000Z</time>
      </trkpt>
      <trkpt lat="48.70274" lon="1.74743">
        <ele>163.1</ele>
        <time>2015-04-19T10:50:29.000Z</time>
      </trkpt>
      <trkpt lat="48.70274" lon="1.74749">
        <ele>163.1</ele>
        <time>2015-04-19T10:50:32.000Z</time>
      </trkpt>
      <trkpt lat="48.70273" lon="1.74764">
        <ele>163.7</ele>
        <time>2015-04-19T10:50:38.000Z</time>
      </trkpt>
      <trkpt lat="48.70273" lon="1.74778">
        <ele>164.2</ele>
        <time>2015-04-19T10:50:44.000Z</time>
      </trkpt>
      <trkpt lat="48.7027" lon="1.74789">
        <ele>164.3</ele>
        <time>2015-04-19T10:50:48.000Z</time>
      </trkpt>
      <trkpt lat="48.70265" lon="1.74811">
        <ele>164.6</ele>
        <time>2015-04-19T10:50:55.000Z</time>
      </trkpt>
      <trkpt lat="48.70266" lon="1.74828">
        <ele>165.2</ele>
        <time>2015-04-19T10:51:02.000Z</time>
      </trkpt>
      <trkpt lat="48.70262" lon="1.74846">
        <ele>165.6</ele>
        <time>2015-04-19T10:51:09.000Z</time>
      </trkpt>
      <trkpt lat="48.7026" lon="1.74866">
        <ele>165.8</ele>
        <time>2015-04-19T10:51:17.000Z</time>
      </trkpt>
      <trkpt lat="48.70254" lon="1.74889">
        <ele>166.9</ele>
        <time>2015-04-19T10:51:26.000Z</time>
      </trkpt>
      <trkpt lat="48.70251" lon="1.74905">
        <ele>167.6</ele>
        <time>2015-04-19T10:51:32.000Z</time>
      </trkpt>
      <trkpt lat="48.70249" lon="1.74922">
        <ele>168.2</ele>
        <time>2015-04-19T10:51:39.000Z</time>
      </trkpt>
      <trkpt lat="48.70248" lon="1.74942">
        <ele>169</ele>
        <time>2015-04-19T10:51:47.000Z</time>
      </trkpt>
      <trkpt lat="48.70247" lon="1.74957">
        <ele>169.1</ele>
        <time>2015-04-19T10:51:53.000Z</time>
      </trkpt>
      <trkpt lat="48.70246" lon="1.74972">
        <ele>169.2</ele>
        <time>2015-04-19T10:51:59.000Z</time>
      </trkpt>
      <trkpt lat="48.70242" lon="1.7499">
        <ele>169.7</ele>
        <time>2015-04-19T10:52:06.000Z</time>
      </trkpt>
      <trkpt lat="48.7024" lon="1.7501">
        <ele>170</ele>
        <time>2015-04-19T10:52:14.000Z</time>
      </trkpt>
      <trkpt lat="48.70236" lon="1.75026">
        <ele>170</ele>
        <time>2015-04-19T10:52:21.000Z</time>
      </trkpt>
      <trkpt lat="48.70231" lon="1.7504">
        <ele>170</ele>
        <time>2015-04-19T10:52:26.000Z</time>
      </trkpt>
      <trkpt lat="48.70231" lon="1.75054">
        <ele>170</ele>
        <time>2015-04-19T10:52:31.000Z</time>
      </trkpt>
      <trkpt lat="48.70229" lon="1.75072">
        <ele>170</ele>
        <time>2015-04-19T10:52:37.000Z</time>
      </trkpt>
      <trkpt lat="48.70228" lon="1.75084">
        <ele>170</ele>
        <time>2015-04-19T10:52:42.000Z</time>
      </trkpt>
      <trkpt lat="48.70228" lon="1.75086">
        <ele>169.9</ele>
        <time>2015-04-19T10:52:43.000Z</time>
      </trkpt>
      <trkpt lat="48.70225" lon="1.75102">
        <ele>169.4</ele>
        <time>2015-04-19T10:52:50.000Z</time>
      </trkpt>
      <trkpt lat="48.70224" lon="1.75115">
        <ele>169.1</ele>
        <time>2015-04-19T10:52:55.000Z</time>
      </trkpt>
      <trkpt lat="48.70224" lon="1.75117">
        <ele>169</ele>
        <time>2015-04-19T10:52:56.000Z</time>
      </trkpt>
      <trkpt lat="48.7022" lon="1.75132">
        <ele>168.9</ele>
        <time>2015-04-19T10:53:02.000Z</time>
      </trkpt>
      <trkpt lat="48.70219" lon="1.75147">
        <ele>168.6</ele>
        <time>2015-04-19T10:53:08.000Z</time>
      </trkpt>
      <trkpt lat="48.70218" lon="1.75158">
        <ele>168.3</ele>
        <time>2015-04-19T10:53:12.000Z</time>
      </trkpt>
      <trkpt lat="48.70217" lon="1.75168">
        <ele>168</ele>
        <time>2015-04-19T10:53:17.000Z</time>
      </trkpt>
      <trkpt lat="48.70217" lon="1.75182">
        <ele>168</ele>
        <time>2015-04-19T10:53:23.000Z</time>
      </trkpt>
      <trkpt lat="48.7022" lon="1.75192">
        <ele>168</ele>
        <time>2015-04-19T10:53:28.000Z</time>
      </trkpt>
      <trkpt lat="48.70221" lon="1.752">
        <ele>168.2</ele>
        <time>2015-04-19T10:53:31.000Z</time>
      </trkpt>
      <trkpt lat="48.70217" lon="1.75213">
        <ele>168.5</ele>
        <time>2015-04-19T10:53:36.000Z</time>
      </trkpt>
      <trkpt lat="48.70216" lon="1.75223">
        <ele>168.8</ele>
        <time>2015-04-19T10:53:40.000Z</time>
      </trkpt>
      <trkpt lat="48.70218" lon="1.75231">
        <ele>168.9</ele>
        <time>2015-04-19T10:53:44.000Z</time>
      </trkpt>
      <trkpt lat="48.70217" lon="1.75239">
        <ele>168.9</ele>
        <time>2015-04-19T10:53:48.000Z</time>
      </trkpt>
      <trkpt lat="48.70217" lon="1.75242">
        <ele>168.9</ele>
        <time>2015-04-19T10:53:50.000Z</time>
      </trkpt>
      <trkpt lat="48.7022" lon="1.75241">
        <ele>169</ele>
        <time>2015-04-19T10:53:54.000Z</time>
      </trkpt>
      <trkpt lat="48.70228" lon="1.75241">
        <ele>169</ele>
        <time>2015-04-19T10:54:00.000Z</time>
      </trkpt>
      <trkpt lat="48.70237" lon="1.75248">
        <ele>169</ele>
        <time>2015-04-19T10:54:06.000Z</time>
      </trkpt>
      <trkpt lat="48.70244" lon="1.75251">
        <ele>169</ele>
        <time>2015-04-19T10:54:11.000Z</time>
      </trkpt>
      <trkpt lat="48.70246" lon="1.75252">
        <ele>169.1</ele>
        <time>2015-04-19T10:54:13.000Z</time>
      </trkpt>
      <trkpt lat="48.70251" lon="1.7526">
        <ele>169.3</ele>
        <time>2015-04-19T10:54:18.000Z</time>
      </trkpt>
      <trkpt lat="48.70256" lon="1.75264">
        <ele>169.5</ele>
        <time>2015-04-19T10:54:22.000Z</time>
      </trkpt>
      <trkpt lat="48.70263" lon="1.75273">
        <ele>169.8</ele>
        <time>2015-04-19T10:54:27.000Z</time>
      </trkpt>
      <trkpt lat="48.70276" lon="1.75282">
        <ele>170</ele>
        <time>2015-04-19T10:54:35.000Z</time>
      </trkpt>
      <trkpt lat="48.70286" lon="1.7529">
        <ele>170</ele>
        <time>2015-04-19T10:54:43.000Z</time>
      </trkpt>
      <trkpt lat="48.70293" lon="1.75296">
        <ele>170</ele>
        <time>2015-04-19T10:54:49.000Z</time>
      </trkpt>
      <trkpt lat="48.70297" lon="1.753">
        <ele>170</ele>
        <time>2015-04-19T10:54:52.000Z</time>
      </trkpt>
      <trkpt lat="48.70306" lon="1.75313">
        <ele>170.3</ele>
        <time>2015-04-19T10:54:59.000Z</time>
      </trkpt>
      <trkpt lat="48.70309" lon="1.75329">
        <ele>171</ele>
        <time>2015-04-19T10:55:06.000Z</time>
      </trkpt>
      <trkpt lat="48.70312" lon="1.75338">
        <ele>171.4</ele>
        <time>2015-04-19T10:55:12.000Z</time>
      </trkpt>
      <trkpt lat="48.70312" lon="1.7534">
        <ele>171.4</ele>
        <time>2015-04-19T10:55:13.000Z</time>
      </trkpt>
      <trkpt lat="48.70325" lon="1.75349">
        <ele>171.9</ele>
        <time>2015-04-19T10:55:21.000Z</time>
      </trkpt>
      <trkpt lat="48.70336" lon="1.75356">
        <ele>172.1</ele>
        <time>2015-04-19T10:55:28.000Z</time>
      </trkpt>
      <trkpt lat="48.70346" lon="1.75365">
        <ele>172.5</ele>
        <time>2015-04-19T10:55:35.000Z</time>
      </trkpt>
      <trkpt lat="48.70353" lon="1.75374">
        <ele>172.8</ele>
        <time>2015-04-19T10:55:41.000Z</time>
      </trkpt>
      <trkpt lat="48.70362" lon="1.75384">
        <ele>173</ele>
        <time>2015-04-19T10:55:48.000Z</time>
      </trkpt>
      <trkpt lat="48.70363" lon="1.75385">
        <ele>173</ele>
        <time>2015-04-19T10:55:49.000Z</time>
      </trkpt>
      <trkpt lat="48.70372" lon="1.75393">
        <ele>173</ele>
        <time>2015-04-19T10:55:55.000Z</time>
      </trkpt>
      <trkpt lat="48.70379" lon="1.754">
        <ele>173</ele>
        <time>2015-04-19T10:56:02.000Z</time>
      </trkpt>
      <trkpt lat="48.7038" lon="1.75401">
        <ele>173</ele>
        <time>2015-04-19T10:56:03.000Z</time>
      </trkpt>
      <trkpt lat="48.70383" lon="1.75402">
        <ele>173</ele>
        <time>2015-04-19T10:56:07.000Z</time>
      </trkpt>
      <trkpt lat="48.70389" lon="1.75403">
        <ele>173</ele>
        <time>2015-04-19T10:56:15.000Z</time>
      </trkpt>
      <trkpt lat="48.70392" lon="1.75401">
        <ele>173</ele>
        <time>2015-04-19T10:56:17.000Z</time>
      </trkpt>
      <trkpt lat="48.70401" lon="1.75406">
        <ele>173</ele>
        <time>2015-04-19T10:56:23.000Z</time>
      </trkpt>
      <trkpt lat="48.70406" lon="1.75414">
        <ele>173</ele>
        <time>2015-04-19T10:56:28.000Z</time>
      </trkpt>
      <trkpt lat="48.70417" lon="1.75421">
        <ele>173</ele>
        <time>2015-04-19T10:56:35.000Z</time>
      </trkpt>
      <trkpt lat="48.70418" lon="1.75422">
        <ele>173</ele>
        <time>2015-04-19T10:56:36.000Z</time>
      </trkpt>
      <trkpt lat="48.70421" lon="1.75424">
        <ele>173.1</ele>
        <time>2015-04-19T10:56:38.000Z</time>
      </trkpt>
      <trkpt lat="48.70426" lon="1.75428">
        <ele>173.2</ele>
        <time>2015-04-19T10:56:42.000Z</time>
      </trkpt>
      <trkpt lat="48.70431" lon="1.75431">
        <ele>173.2</ele>
        <time>2015-04-19T10:56:46.000Z</time>
      </trkpt>
      <trkpt lat="48.70437" lon="1.75437">
        <ele>173.2</ele>
        <time>2015-04-19T10:56:51.000Z</time>
      </trkpt>
      <trkpt lat="48.7045" lon="1.75447">
        <ele>173.2</ele>
        <time>2015-04-19T10:56:59.000Z</time>
      </trkpt>
      <trkpt lat="48.70462" lon="1.75457">
        <ele>173.6</ele>
        <time>2015-04-19T10:57:08.000Z</time>
      </trkpt>
      <trkpt lat="48.70467" lon="1.75463">
        <ele>173.8</ele>
        <time>2015-04-19T10:57:13.000Z</time>
      </trkpt>
      <trkpt lat="48.70471" lon="1.7547">
        <ele>174</ele>
        <time>2015-04-19T10:57:17.000Z</time>
      </trkpt>
      <trkpt lat="48.7048" lon="1.7548">
        <ele>173.7</ele>
        <time>2015-04-19T10:57:25.000Z</time>
      </trkpt>
      <trkpt lat="48.7049" lon="1.75488">
        <ele>173.4</ele>
        <time>2015-04-19T10:57:31.000Z</time>
      </trkpt>
      <trkpt lat="48.70491" lon="1.7549">
        <ele>173.4</ele>
        <time>2015-04-19T10:57:32.000Z</time>
      </trkpt>
      <trkpt lat="48.70502" lon="1.75501">
        <ele>173</ele>
        <time>2015-04-19T10:57:41.000Z</time>
      </trkpt>
      <trkpt lat="48.70506" lon="1.75504">
        <ele>173</ele>
        <time>2015-04-19T10:57:44.000Z</time>
      </trkpt>
      <trkpt lat="48.70513" lon="1.75508">
        <ele>173</ele>
        <time>2015-04-19T10:57:48.000Z</time>
      </trkpt>
      <trkpt lat="48.70526" lon="1.7552">
        <ele>173</ele>
        <time>2015-04-19T10:57:56.000Z</time>
      </trkpt>
      <trkpt lat="48.7053" lon="1.75525">
        <ele>173</ele>
        <time>2015-04-19T10:58:00.000Z</time>
      </trkpt>
      <trkpt lat="48.70537" lon="1.75533">
        <ele>173</ele>
        <time>2015-04-19T10:58:06.000Z</time>
      </trkpt>
      <trkpt lat="48.70541" lon="1.75538">
        <ele>173</ele>
        <time>2015-04-19T10:58:09.000Z</time>
      </trkpt>
      <trkpt lat="48.70547" lon="1.75546">
        <ele>173</ele>
        <time>2015-04-19T10:58:14.000Z</time>
      </trkpt>
      <trkpt lat="48.70555" lon="1.75552">
        <ele>173</ele>
        <time>2015-04-19T10:58:19.000Z</time>
      </trkpt>
      <trkpt lat="48.70566" lon="1.75562">
        <ele>173</ele>
        <time>2015-04-19T10:58:26.000Z</time>
      </trkpt>
      <trkpt lat="48.70574" lon="1.75571">
        <ele>173</ele>
        <time>2015-04-19T10:58:33.000Z</time>
      </trkpt>
      <trkpt lat="48.7058" lon="1.75577">
        <ele>173</ele>
        <time>2015-04-19T10:58:39.000Z</time>
      </trkpt>
      <trkpt lat="48.70585" lon="1.75583">
        <ele>172.9</ele>
        <time>2015-04-19T10:58:44.000Z</time>
      </trkpt>
      <trkpt lat="48.7059" lon="1.75589">
        <ele>172.8</ele>
        <time>2015-04-19T10:58:49.000Z</time>
      </trkpt>
      <trkpt lat="48.70594" lon="1.75593">
        <ele>172.6</ele>
        <time>2015-04-19T10:58:53.000Z</time>
      </trkpt>
      <trkpt lat="48.70602" lon="1.75607">
        <ele>172.3</ele>
        <time>2015-04-19T10:59:01.000Z</time>
      </trkpt>
      <trkpt lat="48.70609" lon="1.75616">
        <ele>172.2</ele>
        <time>2015-04-19T10:59:07.000Z</time>
      </trkpt>
      <trkpt lat="48.70615" lon="1.75626">
        <ele>172.5</ele>
        <time>2015-04-19T10:59:13.000Z</time>
      </trkpt>
      <trkpt lat="48.70622" lon="1.75634">
        <ele>172.8</ele>
        <time>2015-04-19T10:59:18.000Z</time>
      </trkpt>
      <trkpt lat="48.70624" lon="1.75636">
        <ele>172.9</ele>
        <time>2015-04-19T10:59:20.000Z</time>
      </trkpt>
      <trkpt lat="48.70628" lon="1.7564">
        <ele>173</ele>
        <time>2015-04-19T10:59:26.000Z</time>
      </trkpt>
      <trkpt lat="48.70628" lon="1.75642">
        <ele>173</ele>
        <time>2015-04-19T10:59:31.000Z</time>
      </trkpt>
      <trkpt lat="48.70627" lon="1.7564">
        <ele>173</ele>
        <time>2015-04-19T10:59:36.000Z</time>
      </trkpt>
      <trkpt lat="48.70626" lon="1.75641">
        <ele>173</ele>
        <time>2015-04-19T10:59:38.000Z</time>
      </trkpt>
      <trkpt lat="48.7064" lon="1.75647">
        <ele>173</ele>
        <time>2015-04-19T11:00:39.000Z</time>
      </trkpt>
      <trkpt lat="48.70642" lon="1.75637">
        <ele>172.8</ele>
        <time>2015-04-19T11:00:43.000Z</time>
      </trkpt>
      <trkpt lat="48.70645" lon="1.75625">
        <ele>172.5</ele>
        <time>2015-04-19T11:00:51.000Z</time>
      </trkpt>
      <trkpt lat="48.70647" lon="1.75616">
        <ele>172.4</ele>
        <time>2015-04-19T11:00:57.000Z</time>
      </trkpt>
      <trkpt lat="48.70648" lon="1.7561">
        <ele>172.3</ele>
        <time>2015-04-19T11:01:00.000Z</time>
      </trkpt>
      <trkpt lat="48.70652" lon="1.75601">
        <ele>172.5</ele>
        <time>2015-04-19T11:01:05.000Z</time>
      </trkpt>
      <trkpt lat="48.70655" lon="1.75593">
        <ele>172.6</ele>
        <time>2015-04-19T11:01:09.000Z</time>
      </trkpt>
      <trkpt lat="48.7066" lon="1.75581">
        <ele>172.8</ele>
        <time>2015-04-19T11:01:15.000Z</time>
      </trkpt>
      <trkpt lat="48.70661" lon="1.75578">
        <ele>172.8</ele>
        <time>2015-04-19T11:01:17.000Z</time>
      </trkpt>
      <trkpt lat="48.70663" lon="1.75575">
        <ele>172.9</ele>
        <time>2015-04-19T11:01:19.000Z</time>
      </trkpt>
      <trkpt lat="48.70671" lon="1.75563">
        <ele>173</ele>
        <time>2015-04-19T11:01:26.000Z</time>
      </trkpt>
      <trkpt lat="48.70673" lon="1.75557">
        <ele>173</ele>
        <time>2015-04-19T11:01:29.000Z</time>
      </trkpt>
      <trkpt lat="48.7068" lon="1.75547">
        <ele>173</ele>
        <time>2015-04-19T11:01:37.000Z</time>
      </trkpt>
      <trkpt lat="48.70685" lon="1.75536">
        <ele>173</ele>
        <time>2015-04-19T11:01:44.000Z</time>
      </trkpt>
      <trkpt lat="48.70689" lon="1.75527">
        <ele>173</ele>
        <time>2015-04-19T11:01:52.000Z</time>
      </trkpt>
      <trkpt lat="48.70689" lon="1.75527">
        <ele>173</ele>
        <time>2015-04-19T11:01:53.000Z</time>
      </trkpt>
      <trkpt lat="48.70691" lon="1.75515">
        <ele>173</ele>
        <time>2015-04-19T11:02:11.000Z</time>
      </trkpt>
      <trkpt lat="48.70694" lon="1.75509">
        <ele>173</ele>
        <time>2015-04-19T11:02:14.000Z</time>
      </trkpt>
      <trkpt lat="48.70698" lon="1.75489">
        <ele>173</ele>
        <time>2015-04-19T11:02:23.000Z</time>
      </trkpt>
      <trkpt lat="48.70699" lon="1.75484">
        <ele>173</ele>
        <time>2015-04-19T11:02:26.000Z</time>
      </trkpt>
      <trkpt lat="48.70699" lon="1.75483">
        <ele>173</ele>
        <time>2015-04-19T11:02:31.000Z</time>
      </trkpt>
      <trkpt lat="48.70699" lon="1.75482">
        <ele>173</ele>
        <time>2015-04-19T11:02:32.000Z</time>
      </trkpt>
    </trkseg>
  </trk>
</gpx>